<?xml version="1.0" encoding="UTF-8" standalone="no" ?>
<gpx xmlns="http://www.topografix.com/GPX/1/1" xmlns:xsi="http://www.w3.org/2001/XMLSchema-instance" xsi:schemaLocation="http://www.topografix.com/GPX/1/1 http://www.topografix.com/GPX/1/1/gpx.xsd" version="1.1" creator="VisuGPX - https://www.visugpx.com">
  <metadata>
    <name>Samedi 9 Octobre 2010</name>
    <desc><![CDATA[Nuit VTT du Samedi 9 Octobre 2O1O]]></desc>
  </metadata>
  <trk>
    <name><![CDATA[ACTIVE LOG 001]]></name>
    <trkseg>
      <trkpt lat="47.17729" lon="-1.62218">
        <ele>16.4797363</ele>
        <time>2010-10-09T17:51:18Z</time>
      </trkpt>
      <trkpt lat="47.17716" lon="-1.62273">
        <ele>17.9217529</ele>
        <time>2010-10-09T17:51:54Z</time>
      </trkpt>
      <trkpt lat="47.17716" lon="-1.62251">
        <ele>18.8830566</ele>
        <time>2010-10-09T17:52:19Z</time>
      </trkpt>
      <trkpt lat="47.17707" lon="-1.62191">
        <ele>19.3637695</ele>
        <time>2010-10-09T17:52:42Z</time>
      </trkpt>
      <trkpt lat="47.17663" lon="-1.62178">
        <ele>19.8443604</ele>
        <time>2010-10-09T17:52:55Z</time>
      </trkpt>
      <trkpt lat="47.17615" lon="-1.62158">
        <ele>16.9604492</ele>
        <time>2010-10-09T17:53:05Z</time>
      </trkpt>
      <trkpt lat="47.17573" lon="-1.62132">
        <ele>15.0377197</ele>
        <time>2010-10-09T17:53:13Z</time>
      </trkpt>
      <trkpt lat="47.17525" lon="-1.62121">
        <ele>17.4411621</ele>
        <time>2010-10-09T17:53:30Z</time>
      </trkpt>
      <trkpt lat="47.17478" lon="-1.62117">
        <ele>15.5184326</ele>
        <time>2010-10-09T17:53:41Z</time>
      </trkpt>
      <trkpt lat="47.1743" lon="-1.62105">
        <ele>13.5958252</ele>
        <time>2010-10-09T17:53:54Z</time>
      </trkpt>
      <trkpt lat="47.17386" lon="-1.62105">
        <ele>12.6343994</ele>
        <time>2010-10-09T17:54:06Z</time>
      </trkpt>
      <trkpt lat="47.17338" lon="-1.62107">
        <ele>12.6343994</ele>
        <time>2010-10-09T17:54:17Z</time>
      </trkpt>
      <trkpt lat="47.1729" lon="-1.62122">
        <ele>11.6732178</ele>
        <time>2010-10-09T17:54:26Z</time>
      </trkpt>
      <trkpt lat="47.17249" lon="-1.62154">
        <ele>10.711792</ele>
        <time>2010-10-09T17:54:39Z</time>
      </trkpt>
      <trkpt lat="47.17206" lon="-1.62183">
        <ele>10.711792</ele>
        <time>2010-10-09T17:54:49Z</time>
      </trkpt>
      <trkpt lat="47.17158" lon="-1.62202">
        <ele>10.2312012</ele>
        <time>2010-10-09T17:54:58Z</time>
      </trkpt>
      <trkpt lat="47.17112" lon="-1.62223">
        <ele>11.1925049</ele>
        <time>2010-10-09T17:55:07Z</time>
      </trkpt>
      <trkpt lat="47.17073" lon="-1.62258">
        <ele>12.1538086</ele>
        <time>2010-10-09T17:55:17Z</time>
      </trkpt>
      <trkpt lat="47.17087" lon="-1.62325">
        <ele>11.1925049</ele>
        <time>2010-10-09T17:55:29Z</time>
      </trkpt>
      <trkpt lat="47.17096" lon="-1.62381">
        <ele>10.711792</ele>
        <time>2010-10-09T17:55:42Z</time>
      </trkpt>
      <trkpt lat="47.17063" lon="-1.62422">
        <ele>11.1925049</ele>
        <time>2010-10-09T17:55:55Z</time>
      </trkpt>
      <trkpt lat="47.17017" lon="-1.62446">
        <ele>12.1538086</ele>
        <time>2010-10-09T17:56:07Z</time>
      </trkpt>
      <trkpt lat="47.16973" lon="-1.62472">
        <ele>14.076416</ele>
        <time>2010-10-09T17:56:19Z</time>
      </trkpt>
      <trkpt lat="47.16954" lon="-1.62523">
        <ele>14.076416</ele>
        <time>2010-10-09T17:56:34Z</time>
      </trkpt>
      <trkpt lat="47.16913" lon="-1.62515">
        <ele>14.076416</ele>
        <time>2010-10-09T17:56:46Z</time>
      </trkpt>
      <trkpt lat="47.16866" lon="-1.62504">
        <ele>15.5184326</ele>
        <time>2010-10-09T17:56:56Z</time>
      </trkpt>
      <trkpt lat="47.16822" lon="-1.6249">
        <ele>18.4023438</ele>
        <time>2010-10-09T17:57:07Z</time>
      </trkpt>
      <trkpt lat="47.16778" lon="-1.62471">
        <ele>19.8443604</ele>
        <time>2010-10-09T17:57:16Z</time>
      </trkpt>
      <trkpt lat="47.16732" lon="-1.62456">
        <ele>16.9604492</ele>
        <time>2010-10-09T17:57:27Z</time>
      </trkpt>
      <trkpt lat="47.16687" lon="-1.62467">
        <ele>15.0377197</ele>
        <time>2010-10-09T17:57:42Z</time>
      </trkpt>
      <trkpt lat="47.16643" lon="-1.62492">
        <ele>14.076416</ele>
        <time>2010-10-09T17:57:53Z</time>
      </trkpt>
      <trkpt lat="47.16605" lon="-1.62532">
        <ele>14.5570068</ele>
        <time>2010-10-09T17:58:06Z</time>
      </trkpt>
      <trkpt lat="47.16566" lon="-1.62565">
        <ele>15.5184326</ele>
        <time>2010-10-09T17:58:19Z</time>
      </trkpt>
      <trkpt lat="47.16532" lon="-1.62611">
        <ele>17.9217529</ele>
        <time>2010-10-09T17:58:30Z</time>
      </trkpt>
      <trkpt lat="47.16519" lon="-1.62675">
        <ele>20.8056641</ele>
        <time>2010-10-09T17:58:41Z</time>
      </trkpt>
      <trkpt lat="47.16541" lon="-1.62733">
        <ele>21.286377</ele>
        <time>2010-10-09T17:58:53Z</time>
      </trkpt>
      <trkpt lat="47.16574" lon="-1.62784">
        <ele>20.3249512</ele>
        <time>2010-10-09T17:59:04Z</time>
      </trkpt>
      <trkpt lat="47.16601" lon="-1.62844">
        <ele>19.3637695</ele>
        <time>2010-10-09T17:59:13Z</time>
      </trkpt>
      <trkpt lat="47.16621" lon="-1.62901">
        <ele>19.3637695</ele>
        <time>2010-10-09T17:59:27Z</time>
      </trkpt>
      <trkpt lat="47.16581" lon="-1.62925">
        <ele>19.8443604</ele>
        <time>2010-10-09T17:59:44Z</time>
      </trkpt>
      <trkpt lat="47.16535" lon="-1.62947">
        <ele>20.8056641</ele>
        <time>2010-10-09T17:59:58Z</time>
      </trkpt>
      <trkpt lat="47.16491" lon="-1.6297">
        <ele>20.8056641</ele>
        <time>2010-10-09T18:00:16Z</time>
      </trkpt>
      <trkpt lat="47.16458" lon="-1.63012">
        <ele>21.7669678</ele>
        <time>2010-10-09T18:00:28Z</time>
      </trkpt>
      <trkpt lat="47.16439" lon="-1.63075">
        <ele>19.3637695</ele>
        <time>2010-10-09T18:00:40Z</time>
      </trkpt>
      <trkpt lat="47.16436" lon="-1.63144">
        <ele>19.3637695</ele>
        <time>2010-10-09T18:00:51Z</time>
      </trkpt>
      <trkpt lat="47.16446" lon="-1.6321">
        <ele>21.286377</ele>
        <time>2010-10-09T18:01:01Z</time>
      </trkpt>
      <trkpt lat="47.16468" lon="-1.63271">
        <ele>22.2475586</ele>
        <time>2010-10-09T18:01:16Z</time>
      </trkpt>
      <trkpt lat="47.16493" lon="-1.63327">
        <ele>21.286377</ele>
        <time>2010-10-09T18:04:05Z</time>
      </trkpt>
      <trkpt lat="47.16524" lon="-1.63387">
        <ele>20.8056641</ele>
        <time>2010-10-09T18:04:18Z</time>
      </trkpt>
      <trkpt lat="47.16558" lon="-1.63431">
        <ele>22.2475586</ele>
        <time>2010-10-09T18:04:29Z</time>
      </trkpt>
      <trkpt lat="47.16592" lon="-1.63478">
        <ele>23.2089844</ele>
        <time>2010-10-09T18:04:40Z</time>
      </trkpt>
      <trkpt lat="47.16624" lon="-1.63528">
        <ele>23.2089844</ele>
        <time>2010-10-09T18:04:51Z</time>
      </trkpt>
      <trkpt lat="47.16642" lon="-1.63577">
        <ele>23.6895752</ele>
        <time>2010-10-09T18:05:04Z</time>
      </trkpt>
      <trkpt lat="47.16596" lon="-1.63576">
        <ele>24.651001</ele>
        <time>2010-10-09T18:05:14Z</time>
      </trkpt>
      <trkpt lat="47.16546" lon="-1.63572">
        <ele>25.1317139</ele>
        <time>2010-10-09T18:05:24Z</time>
      </trkpt>
      <trkpt lat="47.16501" lon="-1.63564">
        <ele>26.0928955</ele>
        <time>2010-10-09T18:05:33Z</time>
      </trkpt>
      <trkpt lat="47.16452" lon="-1.63557">
        <ele>27.0543213</ele>
        <time>2010-10-09T18:05:44Z</time>
      </trkpt>
      <trkpt lat="47.16403" lon="-1.63553">
        <ele>26.5736084</ele>
        <time>2010-10-09T18:05:56Z</time>
      </trkpt>
      <trkpt lat="47.16356" lon="-1.63555">
        <ele>24.1702881</ele>
        <time>2010-10-09T18:06:06Z</time>
      </trkpt>
      <trkpt lat="47.16371" lon="-1.63569">
        <ele>22.7282715</ele>
        <time>2010-10-09T18:06:19Z</time>
      </trkpt>
      <trkpt lat="47.1641" lon="-1.63598">
        <ele>23.6895752</ele>
        <time>2010-10-09T18:06:28Z</time>
      </trkpt>
      <trkpt lat="47.16432" lon="-1.63662">
        <ele>23.6895752</ele>
        <time>2010-10-09T18:06:39Z</time>
      </trkpt>
      <trkpt lat="47.16454" lon="-1.6372">
        <ele>24.1702881</ele>
        <time>2010-10-09T18:06:50Z</time>
      </trkpt>
      <trkpt lat="47.16474" lon="-1.63785">
        <ele>25.1317139</ele>
        <time>2010-10-09T18:07:01Z</time>
      </trkpt>
      <trkpt lat="47.16492" lon="-1.63848">
        <ele>23.2089844</ele>
        <time>2010-10-09T18:07:12Z</time>
      </trkpt>
      <trkpt lat="47.1645" lon="-1.63881">
        <ele>22.7282715</ele>
        <time>2010-10-09T18:07:23Z</time>
      </trkpt>
      <trkpt lat="47.16405" lon="-1.63911">
        <ele>22.7282715</ele>
        <time>2010-10-09T18:07:33Z</time>
      </trkpt>
      <trkpt lat="47.16364" lon="-1.63941">
        <ele>22.7282715</ele>
        <time>2010-10-09T18:07:44Z</time>
      </trkpt>
      <trkpt lat="47.16321" lon="-1.63969">
        <ele>22.7282715</ele>
        <time>2010-10-09T18:07:54Z</time>
      </trkpt>
      <trkpt lat="47.16279" lon="-1.63997">
        <ele>21.7669678</ele>
        <time>2010-10-09T18:08:04Z</time>
      </trkpt>
      <trkpt lat="47.16237" lon="-1.6403">
        <ele>19.8443604</ele>
        <time>2010-10-09T18:08:14Z</time>
      </trkpt>
      <trkpt lat="47.16199" lon="-1.64068">
        <ele>18.8830566</ele>
        <time>2010-10-09T18:08:24Z</time>
      </trkpt>
      <trkpt lat="47.16161" lon="-1.64112">
        <ele>17.4411621</ele>
        <time>2010-10-09T18:08:35Z</time>
      </trkpt>
      <trkpt lat="47.1614" lon="-1.64175">
        <ele>16.4797363</ele>
        <time>2010-10-09T18:08:47Z</time>
      </trkpt>
      <trkpt lat="47.16122" lon="-1.64237">
        <ele>15.9990234</ele>
        <time>2010-10-09T18:08:58Z</time>
      </trkpt>
      <trkpt lat="47.16093" lon="-1.6429">
        <ele>15.9990234</ele>
        <time>2010-10-09T18:10:14Z</time>
      </trkpt>
      <trkpt lat="47.16048" lon="-1.64327">
        <ele>13.5958252</ele>
        <time>2010-10-09T18:10:30Z</time>
      </trkpt>
      <trkpt lat="47.1601" lon="-1.64371">
        <ele>14.076416</ele>
        <time>2010-10-09T18:10:44Z</time>
      </trkpt>
      <trkpt lat="47.15974" lon="-1.64414">
        <ele>14.5570068</ele>
        <time>2010-10-09T18:10:56Z</time>
      </trkpt>
      <trkpt lat="47.1596" lon="-1.64472">
        <ele>15.0377197</ele>
        <time>2010-10-09T18:11:09Z</time>
      </trkpt>
      <trkpt lat="47.15973" lon="-1.64534">
        <ele>16.4797363</ele>
        <time>2010-10-09T18:11:27Z</time>
      </trkpt>
      <trkpt lat="47.1599" lon="-1.64597">
        <ele>16.9604492</ele>
        <time>2010-10-09T18:11:45Z</time>
      </trkpt>
      <trkpt lat="47.16009" lon="-1.64659">
        <ele>17.9217529</ele>
        <time>2010-10-09T18:11:58Z</time>
      </trkpt>
      <trkpt lat="47.16026" lon="-1.64721">
        <ele>18.8830566</ele>
        <time>2010-10-09T18:12:12Z</time>
      </trkpt>
      <trkpt lat="47.16031" lon="-1.64786">
        <ele>17.9217529</ele>
        <time>2010-10-09T18:12:25Z</time>
      </trkpt>
      <trkpt lat="47.16021" lon="-1.64853">
        <ele>16.4797363</ele>
        <time>2010-10-09T18:12:37Z</time>
      </trkpt>
      <trkpt lat="47.16028" lon="-1.64924">
        <ele>17.4411621</ele>
        <time>2010-10-09T18:12:50Z</time>
      </trkpt>
      <trkpt lat="47.1606" lon="-1.64972">
        <ele>18.4023438</ele>
        <time>2010-10-09T18:13:01Z</time>
      </trkpt>
      <trkpt lat="47.16104" lon="-1.64995">
        <ele>19.8443604</ele>
        <time>2010-10-09T18:13:14Z</time>
      </trkpt>
      <trkpt lat="47.16147" lon="-1.6503">
        <ele>19.3637695</ele>
        <time>2010-10-09T18:13:25Z</time>
      </trkpt>
      <trkpt lat="47.16196" lon="-1.65017">
        <ele>20.8056641</ele>
        <time>2010-10-09T18:13:34Z</time>
      </trkpt>
      <trkpt lat="47.16243" lon="-1.65001">
        <ele>22.2475586</ele>
        <time>2010-10-09T18:13:43Z</time>
      </trkpt>
      <trkpt lat="47.16283" lon="-1.6501">
        <ele>23.2089844</ele>
        <time>2010-10-09T18:13:52Z</time>
      </trkpt>
      <trkpt lat="47.16285" lon="-1.6508">
        <ele>23.2089844</ele>
        <time>2010-10-09T18:14:01Z</time>
      </trkpt>
      <trkpt lat="47.16288" lon="-1.65149">
        <ele>24.1702881</ele>
        <time>2010-10-09T18:14:10Z</time>
      </trkpt>
      <trkpt lat="47.16291" lon="-1.65219">
        <ele>25.1317139</ele>
        <time>2010-10-09T18:14:22Z</time>
      </trkpt>
      <trkpt lat="47.1629" lon="-1.65291">
        <ele>26.0928955</ele>
        <time>2010-10-09T18:14:33Z</time>
      </trkpt>
      <trkpt lat="47.16296" lon="-1.65358">
        <ele>26.0928955</ele>
        <time>2010-10-09T18:14:44Z</time>
      </trkpt>
      <trkpt lat="47.16324" lon="-1.6541">
        <ele>26.0928955</ele>
        <time>2010-10-09T18:14:54Z</time>
      </trkpt>
      <trkpt lat="47.16351" lon="-1.65465">
        <ele>24.1702881</ele>
        <time>2010-10-09T18:15:04Z</time>
      </trkpt>
      <trkpt lat="47.16381" lon="-1.65518">
        <ele>23.2089844</ele>
        <time>2010-10-09T18:15:14Z</time>
      </trkpt>
      <trkpt lat="47.16405" lon="-1.65579">
        <ele>25.1317139</ele>
        <time>2010-10-09T18:15:26Z</time>
      </trkpt>
      <trkpt lat="47.16448" lon="-1.65614">
        <ele>25.1317139</ele>
        <time>2010-10-09T18:15:38Z</time>
      </trkpt>
      <trkpt lat="47.16425" lon="-1.65658">
        <ele>25.1317139</ele>
        <time>2010-10-09T18:15:50Z</time>
      </trkpt>
      <trkpt lat="47.16384" lon="-1.65687">
        <ele>23.6895752</ele>
        <time>2010-10-09T18:16:00Z</time>
      </trkpt>
      <trkpt lat="47.16339" lon="-1.65702">
        <ele>24.651001</ele>
        <time>2010-10-09T18:16:10Z</time>
      </trkpt>
      <trkpt lat="47.16295" lon="-1.65726">
        <ele>25.1317139</ele>
        <time>2010-10-09T18:16:20Z</time>
      </trkpt>
      <trkpt lat="47.16249" lon="-1.6575">
        <ele>23.6895752</ele>
        <time>2010-10-09T18:16:31Z</time>
      </trkpt>
      <trkpt lat="47.16207" lon="-1.65773">
        <ele>22.7282715</ele>
        <time>2010-10-09T18:16:42Z</time>
      </trkpt>
      <trkpt lat="47.16159" lon="-1.65793">
        <ele>21.286377</ele>
        <time>2010-10-09T18:16:52Z</time>
      </trkpt>
      <trkpt lat="47.16113" lon="-1.65812">
        <ele>20.8056641</ele>
        <time>2010-10-09T18:17:03Z</time>
      </trkpt>
      <trkpt lat="47.16065" lon="-1.65824">
        <ele>20.8056641</ele>
        <time>2010-10-09T18:17:14Z</time>
      </trkpt>
      <trkpt lat="47.16016" lon="-1.65835">
        <ele>18.8830566</ele>
        <time>2010-10-09T18:17:25Z</time>
      </trkpt>
      <trkpt lat="47.16005" lon="-1.65899">
        <ele>18.8830566</ele>
        <time>2010-10-09T18:17:35Z</time>
      </trkpt>
      <trkpt lat="47.1601" lon="-1.65969">
        <ele>19.3637695</ele>
        <time>2010-10-09T18:17:43Z</time>
      </trkpt>
      <trkpt lat="47.16019" lon="-1.66036">
        <ele>21.286377</ele>
        <time>2010-10-09T18:17:51Z</time>
      </trkpt>
      <trkpt lat="47.1603" lon="-1.66106">
        <ele>23.2089844</ele>
        <time>2010-10-09T18:17:59Z</time>
      </trkpt>
      <trkpt lat="47.1604" lon="-1.66174">
        <ele>24.1702881</ele>
        <time>2010-10-09T18:18:07Z</time>
      </trkpt>
      <trkpt lat="47.1605" lon="-1.66246">
        <ele>25.6123047</ele>
        <time>2010-10-09T18:18:16Z</time>
      </trkpt>
      <trkpt lat="47.1606" lon="-1.66316">
        <ele>26.0928955</ele>
        <time>2010-10-09T18:18:25Z</time>
      </trkpt>
      <trkpt lat="47.16065" lon="-1.6639">
        <ele>26.5736084</ele>
        <time>2010-10-09T18:18:35Z</time>
      </trkpt>
      <trkpt lat="47.16072" lon="-1.6646">
        <ele>27.5349121</ele>
        <time>2010-10-09T18:18:45Z</time>
      </trkpt>
      <trkpt lat="47.16055" lon="-1.66512">
        <ele>26.5736084</ele>
        <time>2010-10-09T18:18:57Z</time>
      </trkpt>
      <trkpt lat="47.16006" lon="-1.66506">
        <ele>24.651001</ele>
        <time>2010-10-09T18:19:07Z</time>
      </trkpt>
      <trkpt lat="47.15959" lon="-1.66501">
        <ele>25.6123047</ele>
        <time>2010-10-09T18:19:16Z</time>
      </trkpt>
      <trkpt lat="47.15912" lon="-1.66507">
        <ele>25.6123047</ele>
        <time>2010-10-09T18:19:25Z</time>
      </trkpt>
      <trkpt lat="47.15867" lon="-1.6652">
        <ele>24.651001</ele>
        <time>2010-10-09T18:19:33Z</time>
      </trkpt>
      <trkpt lat="47.15819" lon="-1.66534">
        <ele>25.1317139</ele>
        <time>2010-10-09T18:19:43Z</time>
      </trkpt>
      <trkpt lat="47.15772" lon="-1.66541">
        <ele>25.1317139</ele>
        <time>2010-10-09T18:19:53Z</time>
      </trkpt>
      <trkpt lat="47.15746" lon="-1.66586">
        <ele>26.0928955</ele>
        <time>2010-10-09T18:20:09Z</time>
      </trkpt>
      <trkpt lat="47.15746" lon="-1.66655">
        <ele>25.6123047</ele>
        <time>2010-10-09T18:20:21Z</time>
      </trkpt>
      <trkpt lat="47.15745" lon="-1.66725">
        <ele>25.1317139</ele>
        <time>2010-10-09T18:20:32Z</time>
      </trkpt>
      <trkpt lat="47.15731" lon="-1.66787">
        <ele>24.651001</ele>
        <time>2010-10-09T18:20:45Z</time>
      </trkpt>
      <trkpt lat="47.15729" lon="-1.66858">
        <ele>24.651001</ele>
        <time>2010-10-09T18:20:55Z</time>
      </trkpt>
      <trkpt lat="47.15728" lon="-1.66928">
        <ele>24.651001</ele>
        <time>2010-10-09T18:21:05Z</time>
      </trkpt>
      <trkpt lat="47.15729" lon="-1.66994">
        <ele>25.1317139</ele>
        <time>2010-10-09T18:21:18Z</time>
      </trkpt>
      <trkpt lat="47.15737" lon="-1.67058">
        <ele>25.1317139</ele>
        <time>2010-10-09T18:21:40Z</time>
      </trkpt>
      <trkpt lat="47.15736" lon="-1.67127">
        <ele>26.0928955</ele>
        <time>2010-10-09T18:21:56Z</time>
      </trkpt>
      <trkpt lat="47.15719" lon="-1.67179">
        <ele>25.6123047</ele>
        <time>2010-10-09T18:22:12Z</time>
      </trkpt>
      <trkpt lat="47.15672" lon="-1.67189">
        <ele>26.5736084</ele>
        <time>2010-10-09T18:22:22Z</time>
      </trkpt>
      <trkpt lat="47.15623" lon="-1.672">
        <ele>26.5736084</ele>
        <time>2010-10-09T18:22:32Z</time>
      </trkpt>
      <trkpt lat="47.15576" lon="-1.67212">
        <ele>25.1317139</ele>
        <time>2010-10-09T18:22:41Z</time>
      </trkpt>
      <trkpt lat="47.15529" lon="-1.67225">
        <ele>24.651001</ele>
        <time>2010-10-09T18:22:54Z</time>
      </trkpt>
      <trkpt lat="47.15482" lon="-1.67236">
        <ele>25.6123047</ele>
        <time>2010-10-09T18:23:03Z</time>
      </trkpt>
      <trkpt lat="47.15435" lon="-1.67246">
        <ele>25.6123047</ele>
        <time>2010-10-09T18:23:11Z</time>
      </trkpt>
      <trkpt lat="47.1539" lon="-1.67257">
        <ele>27.5349121</ele>
        <time>2010-10-09T18:23:21Z</time>
      </trkpt>
      <trkpt lat="47.15343" lon="-1.67267">
        <ele>30.4188232</ele>
        <time>2010-10-09T18:23:31Z</time>
      </trkpt>
      <trkpt lat="47.153" lon="-1.67252">
        <ele>33.7834473</ele>
        <time>2010-10-09T18:23:41Z</time>
      </trkpt>
      <trkpt lat="47.15256" lon="-1.67217">
        <ele>32.8222656</ele>
        <time>2010-10-09T18:23:51Z</time>
      </trkpt>
      <trkpt lat="47.15211" lon="-1.67184">
        <ele>28.9769287</ele>
        <time>2010-10-09T18:24:00Z</time>
      </trkpt>
      <trkpt lat="47.15166" lon="-1.67162">
        <ele>27.0543213</ele>
        <time>2010-10-09T18:24:10Z</time>
      </trkpt>
      <trkpt lat="47.15126" lon="-1.67135">
        <ele>25.1317139</ele>
        <time>2010-10-09T18:24:20Z</time>
      </trkpt>
      <trkpt lat="47.151" lon="-1.67074">
        <ele>23.6895752</ele>
        <time>2010-10-09T18:24:28Z</time>
      </trkpt>
      <trkpt lat="47.15074" lon="-1.67013">
        <ele>21.7669678</ele>
        <time>2010-10-09T18:24:36Z</time>
      </trkpt>
      <trkpt lat="47.15039" lon="-1.66969">
        <ele>21.286377</ele>
        <time>2010-10-09T18:24:48Z</time>
      </trkpt>
      <trkpt lat="47.14995" lon="-1.66957">
        <ele>22.2475586</ele>
        <time>2010-10-09T18:24:57Z</time>
      </trkpt>
      <trkpt lat="47.14953" lon="-1.66934">
        <ele>24.651001</ele>
        <time>2010-10-09T18:25:07Z</time>
      </trkpt>
      <trkpt lat="47.14909" lon="-1.66903">
        <ele>23.6895752</ele>
        <time>2010-10-09T18:25:22Z</time>
      </trkpt>
      <trkpt lat="47.14882" lon="-1.66849">
        <ele>26.5736084</ele>
        <time>2010-10-09T18:25:32Z</time>
      </trkpt>
      <trkpt lat="47.14861" lon="-1.66782">
        <ele>29.4575195</ele>
        <time>2010-10-09T18:25:45Z</time>
      </trkpt>
      <trkpt lat="47.14846" lon="-1.66717">
        <ele>28.9769287</ele>
        <time>2010-10-09T18:25:58Z</time>
      </trkpt>
      <trkpt lat="47.14833" lon="-1.66654">
        <ele>28.9769287</ele>
        <time>2010-10-09T18:26:12Z</time>
      </trkpt>
      <trkpt lat="47.14829" lon="-1.66588">
        <ele>27.5349121</ele>
        <time>2010-10-09T18:26:27Z</time>
      </trkpt>
      <trkpt lat="47.14831" lon="-1.66523">
        <ele>25.1317139</ele>
        <time>2010-10-09T18:26:45Z</time>
      </trkpt>
      <trkpt lat="47.14837" lon="-1.66458">
        <ele>26.0928955</ele>
        <time>2010-10-09T18:26:57Z</time>
      </trkpt>
      <trkpt lat="47.14843" lon="-1.66392">
        <ele>26.5736084</ele>
        <time>2010-10-09T18:27:13Z</time>
      </trkpt>
      <trkpt lat="47.14855" lon="-1.66328">
        <ele>25.1317139</ele>
        <time>2010-10-09T18:27:24Z</time>
      </trkpt>
      <trkpt lat="47.14868" lon="-1.66259">
        <ele>27.0543213</ele>
        <time>2010-10-09T18:27:36Z</time>
      </trkpt>
      <trkpt lat="47.14882" lon="-1.66191">
        <ele>26.0928955</ele>
        <time>2010-10-09T18:27:46Z</time>
      </trkpt>
      <trkpt lat="47.14875" lon="-1.66122">
        <ele>26.0928955</ele>
        <time>2010-10-09T18:27:56Z</time>
      </trkpt>
      <trkpt lat="47.14875" lon="-1.6605">
        <ele>26.0928955</ele>
        <time>2010-10-09T18:28:06Z</time>
      </trkpt>
      <trkpt lat="47.14878" lon="-1.6598">
        <ele>26.5736084</ele>
        <time>2010-10-09T18:28:15Z</time>
      </trkpt>
      <trkpt lat="47.14877" lon="-1.6591">
        <ele>26.0928955</ele>
        <time>2010-10-09T18:28:24Z</time>
      </trkpt>
      <trkpt lat="47.14871" lon="-1.65841">
        <ele>24.1702881</ele>
        <time>2010-10-09T18:28:33Z</time>
      </trkpt>
      <trkpt lat="47.14846" lon="-1.65802">
        <ele>22.2475586</ele>
        <time>2010-10-09T18:28:45Z</time>
      </trkpt>
      <trkpt lat="47.14798" lon="-1.65809">
        <ele>21.286377</ele>
        <time>2010-10-09T18:28:55Z</time>
      </trkpt>
      <trkpt lat="47.14754" lon="-1.6582">
        <ele>19.3637695</ele>
        <time>2010-10-09T18:29:05Z</time>
      </trkpt>
      <trkpt lat="47.14732" lon="-1.65774">
        <ele>17.4411621</ele>
        <time>2010-10-09T18:29:17Z</time>
      </trkpt>
      <trkpt lat="47.14694" lon="-1.65771">
        <ele>15.0377197</ele>
        <time>2010-10-09T18:29:30Z</time>
      </trkpt>
      <trkpt lat="47.14645" lon="-1.65773">
        <ele>15.0377197</ele>
        <time>2010-10-09T18:29:41Z</time>
      </trkpt>
      <trkpt lat="47.14597" lon="-1.65763">
        <ele>14.076416</ele>
        <time>2010-10-09T18:29:51Z</time>
      </trkpt>
      <trkpt lat="47.14581" lon="-1.65706">
        <ele>14.076416</ele>
        <time>2010-10-09T18:30:02Z</time>
      </trkpt>
      <trkpt lat="47.14581" lon="-1.65638">
        <ele>15.9990234</ele>
        <time>2010-10-09T18:30:12Z</time>
      </trkpt>
      <trkpt lat="47.14586" lon="-1.65565">
        <ele>15.5184326</ele>
        <time>2010-10-09T18:30:21Z</time>
      </trkpt>
      <trkpt lat="47.14575" lon="-1.65502">
        <ele>14.5570068</ele>
        <time>2010-10-09T18:30:31Z</time>
      </trkpt>
      <trkpt lat="47.14533" lon="-1.65509">
        <ele>12.6343994</ele>
        <time>2010-10-09T18:30:42Z</time>
      </trkpt>
      <trkpt lat="47.14496" lon="-1.65502">
        <ele>13.1151123</ele>
        <time>2010-10-09T18:31:02Z</time>
      </trkpt>
      <trkpt lat="47.14515" lon="-1.65436">
        <ele>13.1151123</ele>
        <time>2010-10-09T18:31:17Z</time>
      </trkpt>
      <trkpt lat="47.14513" lon="-1.65378">
        <ele>13.1151123</ele>
        <time>2010-10-09T18:31:29Z</time>
      </trkpt>
      <trkpt lat="47.14469" lon="-1.65402">
        <ele>14.5570068</ele>
        <time>2010-10-09T18:31:40Z</time>
      </trkpt>
      <trkpt lat="47.14426" lon="-1.65428">
        <ele>15.0377197</ele>
        <time>2010-10-09T18:31:53Z</time>
      </trkpt>
      <trkpt lat="47.1438" lon="-1.65432">
        <ele>13.5958252</ele>
        <time>2010-10-09T18:33:17Z</time>
      </trkpt>
      <trkpt lat="47.14336" lon="-1.654">
        <ele>13.1151123</ele>
        <time>2010-10-09T18:33:28Z</time>
      </trkpt>
      <trkpt lat="47.14289" lon="-1.65372">
        <ele>13.1151123</ele>
        <time>2010-10-09T18:33:39Z</time>
      </trkpt>
      <trkpt lat="47.14243" lon="-1.6535">
        <ele>12.1538086</ele>
        <time>2010-10-09T18:33:48Z</time>
      </trkpt>
      <trkpt lat="47.14199" lon="-1.65327">
        <ele>11.6732178</ele>
        <time>2010-10-09T18:33:57Z</time>
      </trkpt>
      <trkpt lat="47.14154" lon="-1.65311">
        <ele>12.1538086</ele>
        <time>2010-10-09T18:34:06Z</time>
      </trkpt>
      <trkpt lat="47.14107" lon="-1.65289">
        <ele>11.6732178</ele>
        <time>2010-10-09T18:34:15Z</time>
      </trkpt>
      <trkpt lat="47.14061" lon="-1.65275">
        <ele>10.711792</ele>
        <time>2010-10-09T18:34:24Z</time>
      </trkpt>
      <trkpt lat="47.14014" lon="-1.65266">
        <ele>10.2312012</ele>
        <time>2010-10-09T18:34:33Z</time>
      </trkpt>
      <trkpt lat="47.13966" lon="-1.65248">
        <ele>9.2698975</ele>
        <time>2010-10-09T18:34:42Z</time>
      </trkpt>
      <trkpt lat="47.13925" lon="-1.65218">
        <ele>8.7891846</ele>
        <time>2010-10-09T18:34:50Z</time>
      </trkpt>
      <trkpt lat="47.1388" lon="-1.65193">
        <ele>8.3085938</ele>
        <time>2010-10-09T18:34:59Z</time>
      </trkpt>
      <trkpt lat="47.1384" lon="-1.65224">
        <ele>9.2698975</ele>
        <time>2010-10-09T18:35:09Z</time>
      </trkpt>
      <trkpt lat="47.13803" lon="-1.65272">
        <ele>11.1925049</ele>
        <time>2010-10-09T18:35:18Z</time>
      </trkpt>
      <trkpt lat="47.13769" lon="-1.6532">
        <ele>14.5570068</ele>
        <time>2010-10-09T18:35:27Z</time>
      </trkpt>
      <trkpt lat="47.13737" lon="-1.65372">
        <ele>14.5570068</ele>
        <time>2010-10-09T18:35:36Z</time>
      </trkpt>
      <trkpt lat="47.13709" lon="-1.6543">
        <ele>13.5958252</ele>
        <time>2010-10-09T18:35:45Z</time>
      </trkpt>
      <trkpt lat="47.13685" lon="-1.65487">
        <ele>13.5958252</ele>
        <time>2010-10-09T18:35:54Z</time>
      </trkpt>
      <trkpt lat="47.13648" lon="-1.65488">
        <ele>13.5958252</ele>
        <time>2010-10-09T18:36:06Z</time>
      </trkpt>
      <trkpt lat="47.13619" lon="-1.65429">
        <ele>13.1151123</ele>
        <time>2010-10-09T18:36:16Z</time>
      </trkpt>
      <trkpt lat="47.13585" lon="-1.65373">
        <ele>12.1538086</ele>
        <time>2010-10-09T18:36:26Z</time>
      </trkpt>
      <trkpt lat="47.13546" lon="-1.6533">
        <ele>11.6732178</ele>
        <time>2010-10-09T18:36:36Z</time>
      </trkpt>
      <trkpt lat="47.13504" lon="-1.65334">
        <ele>10.711792</ele>
        <time>2010-10-09T18:36:47Z</time>
      </trkpt>
      <trkpt lat="47.13481" lon="-1.65398">
        <ele>10.711792</ele>
        <time>2010-10-09T18:36:56Z</time>
      </trkpt>
      <trkpt lat="47.13455" lon="-1.6546">
        <ele>10.2312012</ele>
        <time>2010-10-09T18:37:05Z</time>
      </trkpt>
      <trkpt lat="47.13423" lon="-1.65517">
        <ele>9.2698975</ele>
        <time>2010-10-09T18:37:14Z</time>
      </trkpt>
      <trkpt lat="47.13392" lon="-1.65568">
        <ele>7.8278809</ele>
        <time>2010-10-09T18:37:22Z</time>
      </trkpt>
      <trkpt lat="47.1336" lon="-1.65617">
        <ele>7.8278809</ele>
        <time>2010-10-09T18:37:30Z</time>
      </trkpt>
      <trkpt lat="47.1332" lon="-1.65658">
        <ele>6.8664551</ele>
        <time>2010-10-09T18:37:39Z</time>
      </trkpt>
      <trkpt lat="47.13279" lon="-1.65697">
        <ele>6.8664551</ele>
        <time>2010-10-09T18:37:48Z</time>
      </trkpt>
      <trkpt lat="47.13237" lon="-1.65723">
        <ele>5.9052734</ele>
        <time>2010-10-09T18:37:56Z</time>
      </trkpt>
      <trkpt lat="47.13192" lon="-1.6575">
        <ele>4.4632568</ele>
        <time>2010-10-09T18:38:04Z</time>
      </trkpt>
      <trkpt lat="47.13149" lon="-1.65782">
        <ele>4.4632568</ele>
        <time>2010-10-09T18:38:12Z</time>
      </trkpt>
      <trkpt lat="47.13121" lon="-1.65835">
        <ele>4.4632568</ele>
        <time>2010-10-09T18:38:20Z</time>
      </trkpt>
      <trkpt lat="47.13088" lon="-1.65891">
        <ele>5.9052734</ele>
        <time>2010-10-09T18:38:29Z</time>
      </trkpt>
      <trkpt lat="47.13067" lon="-1.65947">
        <ele>6.3858643</ele>
        <time>2010-10-09T18:38:42Z</time>
      </trkpt>
      <trkpt lat="47.13071" lon="-1.66016">
        <ele>6.8664551</ele>
        <time>2010-10-09T18:38:51Z</time>
      </trkpt>
      <trkpt lat="47.13081" lon="-1.66091">
        <ele>4.9438477</ele>
        <time>2010-10-09T18:39:00Z</time>
      </trkpt>
      <trkpt lat="47.13105" lon="-1.66158">
        <ele>5.4245605</ele>
        <time>2010-10-09T18:39:08Z</time>
      </trkpt>
      <trkpt lat="47.13123" lon="-1.66221">
        <ele>4.4632568</ele>
        <time>2010-10-09T18:39:17Z</time>
      </trkpt>
      <trkpt lat="47.13073" lon="-1.66236">
        <ele>3.5019531</ele>
        <time>2010-10-09T18:39:27Z</time>
      </trkpt>
      <trkpt lat="47.13026" lon="-1.6626">
        <ele>3.5019531</ele>
        <time>2010-10-09T18:39:36Z</time>
      </trkpt>
      <trkpt lat="47.12979" lon="-1.66288">
        <ele>2.5406494</ele>
        <time>2010-10-09T18:39:45Z</time>
      </trkpt>
      <trkpt lat="47.1294" lon="-1.66334">
        <ele>2.0600586</ele>
        <time>2010-10-09T18:39:54Z</time>
      </trkpt>
      <trkpt lat="47.12902" lon="-1.6637">
        <ele>0.618042</ele>
        <time>2010-10-09T18:40:02Z</time>
      </trkpt>
      <trkpt lat="47.12862" lon="-1.66412">
        <ele>0.618042</ele>
        <time>2010-10-09T18:40:11Z</time>
      </trkpt>
      <trkpt lat="47.12819" lon="-1.66441">
        <ele>0.1374512</ele>
        <time>2010-10-09T18:40:20Z</time>
      </trkpt>
      <trkpt lat="47.12778" lon="-1.66477">
        <ele>0.1374512</ele>
        <time>2010-10-09T18:40:29Z</time>
      </trkpt>
      <trkpt lat="47.12736" lon="-1.66514">
        <ele>0.1374512</ele>
        <time>2010-10-09T18:40:38Z</time>
      </trkpt>
      <trkpt lat="47.12713" lon="-1.66478">
        <ele>0.1374512</ele>
        <time>2010-10-09T18:40:49Z</time>
      </trkpt>
      <trkpt lat="47.12702" lon="-1.66408">
        <ele>0.1374512</ele>
        <time>2010-10-09T18:40:58Z</time>
      </trkpt>
      <trkpt lat="47.12692" lon="-1.66339">
        <ele>-0.3433838</ele>
        <time>2010-10-09T18:41:06Z</time>
      </trkpt>
      <trkpt lat="47.12685" lon="-1.66265">
        <ele>0.618042</ele>
        <time>2010-10-09T18:41:15Z</time>
      </trkpt>
      <trkpt lat="47.12689" lon="-1.66192">
        <ele>0.1374512</ele>
        <time>2010-10-09T18:41:24Z</time>
      </trkpt>
      <trkpt lat="47.12707" lon="-1.66124">
        <ele>-8.5146484</ele>
        <time>2010-10-09T18:41:33Z</time>
      </trkpt>
      <trkpt lat="47.12699" lon="-1.66051">
        <ele>-13.3210449</ele>
        <time>2010-10-09T18:41:42Z</time>
      </trkpt>
      <trkpt lat="47.1268" lon="-1.6598">
        <ele>-12.8404541</ele>
        <time>2010-10-09T18:41:51Z</time>
      </trkpt>
      <trkpt lat="47.12666" lon="-1.65914">
        <ele>-7.5531006</ele>
        <time>2010-10-09T18:41:59Z</time>
      </trkpt>
      <trkpt lat="47.12653" lon="-1.65845">
        <ele>-2.2659912</ele>
        <time>2010-10-09T18:42:07Z</time>
      </trkpt>
      <trkpt lat="47.12622" lon="-1.65786">
        <ele>2.0600586</ele>
        <time>2010-10-09T18:42:17Z</time>
      </trkpt>
      <trkpt lat="47.12591" lon="-1.65723">
        <ele>5.9052734</ele>
        <time>2010-10-09T18:42:27Z</time>
      </trkpt>
      <trkpt lat="47.12555" lon="-1.65664">
        <ele>5.9052734</ele>
        <time>2010-10-09T18:42:37Z</time>
      </trkpt>
      <trkpt lat="47.12513" lon="-1.65624">
        <ele>3.0212402</ele>
        <time>2010-10-09T18:42:46Z</time>
      </trkpt>
      <trkpt lat="47.1247" lon="-1.65609">
        <ele>1.0986328</ele>
        <time>2010-10-09T18:42:54Z</time>
      </trkpt>
      <trkpt lat="47.12419" lon="-1.65596">
        <ele>1.0986328</ele>
        <time>2010-10-09T18:43:03Z</time>
      </trkpt>
      <trkpt lat="47.12374" lon="-1.65571">
        <ele>1.0986328</ele>
        <time>2010-10-09T18:43:11Z</time>
      </trkpt>
      <trkpt lat="47.1234" lon="-1.6552">
        <ele>1.5793457</ele>
        <time>2010-10-09T18:43:19Z</time>
      </trkpt>
      <trkpt lat="47.12307" lon="-1.6547">
        <ele>1.5793457</ele>
        <time>2010-10-09T18:43:27Z</time>
      </trkpt>
      <trkpt lat="47.12275" lon="-1.65419">
        <ele>1.0986328</ele>
        <time>2010-10-09T18:43:35Z</time>
      </trkpt>
      <trkpt lat="47.12251" lon="-1.65362">
        <ele>1.5793457</ele>
        <time>2010-10-09T18:43:43Z</time>
      </trkpt>
      <trkpt lat="47.12233" lon="-1.653">
        <ele>0.618042</ele>
        <time>2010-10-09T18:44:00Z</time>
      </trkpt>
      <trkpt lat="47.12195" lon="-1.65324">
        <ele>-0.8240967</ele>
        <time>2010-10-09T18:44:13Z</time>
      </trkpt>
      <trkpt lat="47.12158" lon="-1.65373">
        <ele>-2.7467041</ele>
        <time>2010-10-09T18:44:24Z</time>
      </trkpt>
      <trkpt lat="47.12119" lon="-1.6542">
        <ele>-1.3046875</ele>
        <time>2010-10-09T18:44:36Z</time>
      </trkpt>
      <trkpt lat="47.12078" lon="-1.65469">
        <ele>3.5019531</ele>
        <time>2010-10-09T18:44:48Z</time>
      </trkpt>
      <trkpt lat="47.1203" lon="-1.65523">
        <ele>6.3858643</ele>
        <time>2010-10-09T18:45:02Z</time>
      </trkpt>
      <trkpt lat="47.11987" lon="-1.65564">
        <ele>3.982666</ele>
        <time>2010-10-09T18:45:20Z</time>
      </trkpt>
      <trkpt lat="47.11985" lon="-1.65565">
        <ele>1.5793457</ele>
        <time>2010-10-09T18:47:52Z</time>
      </trkpt>
      <trkpt lat="47.12025" lon="-1.65527">
        <ele>2.0600586</ele>
        <time>2010-10-09T18:48:12Z</time>
      </trkpt>
      <trkpt lat="47.12064" lon="-1.65488">
        <ele>2.5406494</ele>
        <time>2010-10-09T18:48:26Z</time>
      </trkpt>
      <trkpt lat="47.12098" lon="-1.65443">
        <ele>3.5019531</ele>
        <time>2010-10-09T18:48:37Z</time>
      </trkpt>
      <trkpt lat="47.12134" lon="-1.65398">
        <ele>0.618042</ele>
        <time>2010-10-09T18:48:48Z</time>
      </trkpt>
      <trkpt lat="47.12172" lon="-1.65352">
        <ele>1.5793457</ele>
        <time>2010-10-09T18:48:59Z</time>
      </trkpt>
      <trkpt lat="47.1221" lon="-1.65305">
        <ele>2.0600586</ele>
        <time>2010-10-09T18:49:10Z</time>
      </trkpt>
      <trkpt lat="47.12231" lon="-1.65237">
        <ele>3.5019531</ele>
        <time>2010-10-09T18:49:24Z</time>
      </trkpt>
      <trkpt lat="47.12241" lon="-1.65166">
        <ele>2.5406494</ele>
        <time>2010-10-09T18:49:34Z</time>
      </trkpt>
      <trkpt lat="47.12251" lon="-1.65095">
        <ele>2.5406494</ele>
        <time>2010-10-09T18:49:45Z</time>
      </trkpt>
      <trkpt lat="47.1226" lon="-1.65023">
        <ele>0.618042</ele>
        <time>2010-10-09T18:49:54Z</time>
      </trkpt>
      <trkpt lat="47.1227" lon="-1.6495">
        <ele>0.1374512</ele>
        <time>2010-10-09T18:50:03Z</time>
      </trkpt>
      <trkpt lat="47.12279" lon="-1.64881">
        <ele>0.1374512</ele>
        <time>2010-10-09T18:50:12Z</time>
      </trkpt>
      <trkpt lat="47.12286" lon="-1.64808">
        <ele>0.1374512</ele>
        <time>2010-10-09T18:50:20Z</time>
      </trkpt>
      <trkpt lat="47.12291" lon="-1.64736">
        <ele>-0.3433838</ele>
        <time>2010-10-09T18:50:28Z</time>
      </trkpt>
      <trkpt lat="47.12293" lon="-1.64668">
        <ele>-2.2659912</ele>
        <time>2010-10-09T18:50:36Z</time>
      </trkpt>
      <trkpt lat="47.12292" lon="-1.646">
        <ele>-2.2659912</ele>
        <time>2010-10-09T18:50:44Z</time>
      </trkpt>
      <trkpt lat="47.12266" lon="-1.6454">
        <ele>-2.2659912</ele>
        <time>2010-10-09T18:50:53Z</time>
      </trkpt>
      <trkpt lat="47.12222" lon="-1.64559">
        <ele>-0.8240967</ele>
        <time>2010-10-09T18:51:04Z</time>
      </trkpt>
      <trkpt lat="47.1218" lon="-1.64585">
        <ele>1.5793457</ele>
        <time>2010-10-09T18:51:12Z</time>
      </trkpt>
      <trkpt lat="47.12134" lon="-1.64616">
        <ele>2.0600586</ele>
        <time>2010-10-09T18:51:21Z</time>
      </trkpt>
      <trkpt lat="47.12091" lon="-1.64617">
        <ele>3.5019531</ele>
        <time>2010-10-09T18:51:30Z</time>
      </trkpt>
      <trkpt lat="47.12047" lon="-1.6459">
        <ele>1.5793457</ele>
        <time>2010-10-09T18:51:38Z</time>
      </trkpt>
      <trkpt lat="47.12" lon="-1.64562">
        <ele>-0.3433838</ele>
        <time>2010-10-09T18:51:45Z</time>
      </trkpt>
      <trkpt lat="47.11952" lon="-1.64533">
        <ele>-0.3433838</ele>
        <time>2010-10-09T18:51:52Z</time>
      </trkpt>
      <trkpt lat="47.11908" lon="-1.64505">
        <ele>0.1374512</ele>
        <time>2010-10-09T18:51:59Z</time>
      </trkpt>
      <trkpt lat="47.11905" lon="-1.64447">
        <ele>1.5793457</ele>
        <time>2010-10-09T18:52:08Z</time>
      </trkpt>
      <trkpt lat="47.11927" lon="-1.64383">
        <ele>2.0600586</ele>
        <time>2010-10-09T18:52:16Z</time>
      </trkpt>
      <trkpt lat="47.11948" lon="-1.64322">
        <ele>1.5793457</ele>
        <time>2010-10-09T18:52:24Z</time>
      </trkpt>
      <trkpt lat="47.11955" lon="-1.64258">
        <ele>2.5406494</ele>
        <time>2010-10-09T18:52:34Z</time>
      </trkpt>
      <trkpt lat="47.1195" lon="-1.64187">
        <ele>2.5406494</ele>
        <time>2010-10-09T18:52:44Z</time>
      </trkpt>
      <trkpt lat="47.11948" lon="-1.64115">
        <ele>2.0600586</ele>
        <time>2010-10-09T18:52:53Z</time>
      </trkpt>
      <trkpt lat="47.11954" lon="-1.64048">
        <ele>2.0600586</ele>
        <time>2010-10-09T18:53:01Z</time>
      </trkpt>
      <trkpt lat="47.1196" lon="-1.63979">
        <ele>1.5793457</ele>
        <time>2010-10-09T18:53:09Z</time>
      </trkpt>
      <trkpt lat="47.11966" lon="-1.6391">
        <ele>1.5793457</ele>
        <time>2010-10-09T18:53:17Z</time>
      </trkpt>
      <trkpt lat="47.11974" lon="-1.63838">
        <ele>1.5793457</ele>
        <time>2010-10-09T18:53:25Z</time>
      </trkpt>
      <trkpt lat="47.1199" lon="-1.63768">
        <ele>1.5793457</ele>
        <time>2010-10-09T18:53:33Z</time>
      </trkpt>
      <trkpt lat="47.12014" lon="-1.63708">
        <ele>2.5406494</ele>
        <time>2010-10-09T18:53:40Z</time>
      </trkpt>
      <trkpt lat="47.12037" lon="-1.63651">
        <ele>2.0600586</ele>
        <time>2010-10-09T18:53:47Z</time>
      </trkpt>
      <trkpt lat="47.12067" lon="-1.63599">
        <ele>2.0600586</ele>
        <time>2010-10-09T18:53:54Z</time>
      </trkpt>
      <trkpt lat="47.12106" lon="-1.6356">
        <ele>3.0212402</ele>
        <time>2010-10-09T18:54:01Z</time>
      </trkpt>
      <trkpt lat="47.12144" lon="-1.6352">
        <ele>4.4632568</ele>
        <time>2010-10-09T18:54:08Z</time>
      </trkpt>
      <trkpt lat="47.12181" lon="-1.63481">
        <ele>3.982666</ele>
        <time>2010-10-09T18:54:15Z</time>
      </trkpt>
      <trkpt lat="47.12223" lon="-1.63436">
        <ele>3.982666</ele>
        <time>2010-10-09T18:54:23Z</time>
      </trkpt>
      <trkpt lat="47.12261" lon="-1.63392">
        <ele>3.5019531</ele>
        <time>2010-10-09T18:54:31Z</time>
      </trkpt>
      <trkpt lat="47.12262" lon="-1.63338">
        <ele>4.9438477</ele>
        <time>2010-10-09T18:54:43Z</time>
      </trkpt>
      <trkpt lat="47.12249" lon="-1.63276">
        <ele>4.9438477</ele>
        <time>2010-10-09T18:54:56Z</time>
      </trkpt>
      <trkpt lat="47.12224" lon="-1.63215">
        <ele>4.9438477</ele>
        <time>2010-10-09T18:55:06Z</time>
      </trkpt>
      <trkpt lat="47.12227" lon="-1.63154">
        <ele>4.9438477</ele>
        <time>2010-10-09T18:55:15Z</time>
      </trkpt>
      <trkpt lat="47.12263" lon="-1.63104">
        <ele>3.982666</ele>
        <time>2010-10-09T18:55:23Z</time>
      </trkpt>
      <trkpt lat="47.12289" lon="-1.63046">
        <ele>3.0212402</ele>
        <time>2010-10-09T18:55:30Z</time>
      </trkpt>
      <trkpt lat="47.12298" lon="-1.62982">
        <ele>3.0212402</ele>
        <time>2010-10-09T18:55:37Z</time>
      </trkpt>
      <trkpt lat="47.12315" lon="-1.62915">
        <ele>3.982666</ele>
        <time>2010-10-09T18:55:45Z</time>
      </trkpt>
      <trkpt lat="47.12312" lon="-1.6286">
        <ele>3.5019531</ele>
        <time>2010-10-09T18:55:57Z</time>
      </trkpt>
      <trkpt lat="47.12285" lon="-1.62807">
        <ele>3.0212402</ele>
        <time>2010-10-09T18:56:06Z</time>
      </trkpt>
      <trkpt lat="47.12262" lon="-1.62749">
        <ele>1.5793457</ele>
        <time>2010-10-09T18:56:17Z</time>
      </trkpt>
      <trkpt lat="47.12232" lon="-1.62695">
        <ele>-0.8240967</ele>
        <time>2010-10-09T18:56:31Z</time>
      </trkpt>
      <trkpt lat="47.12196" lon="-1.62645">
        <ele>1.5793457</ele>
        <time>2010-10-09T18:57:10Z</time>
      </trkpt>
      <trkpt lat="47.12167" lon="-1.62588">
        <ele>2.5406494</ele>
        <time>2010-10-09T18:57:29Z</time>
      </trkpt>
      <trkpt lat="47.12155" lon="-1.62522">
        <ele>2.5406494</ele>
        <time>2010-10-09T18:57:41Z</time>
      </trkpt>
      <trkpt lat="47.12142" lon="-1.62455">
        <ele>3.0212402</ele>
        <time>2010-10-09T18:57:53Z</time>
      </trkpt>
      <trkpt lat="47.12128" lon="-1.62385">
        <ele>3.982666</ele>
        <time>2010-10-09T18:58:04Z</time>
      </trkpt>
      <trkpt lat="47.12117" lon="-1.62322">
        <ele>5.4245605</ele>
        <time>2010-10-09T18:58:14Z</time>
      </trkpt>
      <trkpt lat="47.12106" lon="-1.62256">
        <ele>3.982666</ele>
        <time>2010-10-09T18:58:27Z</time>
      </trkpt>
      <trkpt lat="47.12145" lon="-1.62219">
        <ele>3.5019531</ele>
        <time>2010-10-09T18:58:39Z</time>
      </trkpt>
      <trkpt lat="47.1216" lon="-1.62155">
        <ele>3.0212402</ele>
        <time>2010-10-09T18:58:48Z</time>
      </trkpt>
      <trkpt lat="47.12192" lon="-1.62104">
        <ele>4.4632568</ele>
        <time>2010-10-09T18:58:59Z</time>
      </trkpt>
      <trkpt lat="47.12231" lon="-1.62065">
        <ele>5.4245605</ele>
        <time>2010-10-09T18:59:09Z</time>
      </trkpt>
      <trkpt lat="47.1227" lon="-1.62025">
        <ele>7.8278809</ele>
        <time>2010-10-09T18:59:19Z</time>
      </trkpt>
      <trkpt lat="47.12307" lon="-1.61987">
        <ele>9.2698975</ele>
        <time>2010-10-09T18:59:27Z</time>
      </trkpt>
      <trkpt lat="47.12344" lon="-1.61948">
        <ele>9.7506104</ele>
        <time>2010-10-09T18:59:35Z</time>
      </trkpt>
      <trkpt lat="47.12385" lon="-1.61903">
        <ele>9.2698975</ele>
        <time>2010-10-09T18:59:45Z</time>
      </trkpt>
      <trkpt lat="47.12423" lon="-1.61861">
        <ele>8.7891846</ele>
        <time>2010-10-09T19:00:00Z</time>
      </trkpt>
      <trkpt lat="47.12442" lon="-1.61795">
        <ele>8.7891846</ele>
        <time>2010-10-09T19:00:12Z</time>
      </trkpt>
      <trkpt lat="47.12461" lon="-1.61732">
        <ele>9.7506104</ele>
        <time>2010-10-09T19:00:21Z</time>
      </trkpt>
      <trkpt lat="47.12475" lon="-1.61668">
        <ele>9.7506104</ele>
        <time>2010-10-09T19:00:31Z</time>
      </trkpt>
      <trkpt lat="47.12476" lon="-1.61649">
        <ele>9.2698975</ele>
        <time>2010-10-09T19:02:45Z</time>
      </trkpt>
      <trkpt lat="47.12474" lon="-1.6158">
        <ele>9.7506104</ele>
        <time>2010-10-09T19:02:59Z</time>
      </trkpt>
      <trkpt lat="47.12466" lon="-1.61514">
        <ele>9.2698975</ele>
        <time>2010-10-09T19:03:09Z</time>
      </trkpt>
      <trkpt lat="47.12458" lon="-1.61444">
        <ele>9.7506104</ele>
        <time>2010-10-09T19:03:21Z</time>
      </trkpt>
      <trkpt lat="47.12456" lon="-1.6138">
        <ele>9.7506104</ele>
        <time>2010-10-09T19:04:38Z</time>
      </trkpt>
      <trkpt lat="47.12502" lon="-1.61356">
        <ele>10.711792</ele>
        <time>2010-10-09T19:04:56Z</time>
      </trkpt>
      <trkpt lat="47.12545" lon="-1.61334">
        <ele>11.6732178</ele>
        <time>2010-10-09T19:05:08Z</time>
      </trkpt>
      <trkpt lat="47.12589" lon="-1.61311">
        <ele>12.1538086</ele>
        <time>2010-10-09T19:06:12Z</time>
      </trkpt>
      <trkpt lat="47.12635" lon="-1.61286">
        <ele>12.6343994</ele>
        <time>2010-10-09T19:06:23Z</time>
      </trkpt>
      <trkpt lat="47.12678" lon="-1.61255">
        <ele>13.1151123</ele>
        <time>2010-10-09T19:06:35Z</time>
      </trkpt>
      <trkpt lat="47.12718" lon="-1.61216">
        <ele>12.6343994</ele>
        <time>2010-10-09T19:06:46Z</time>
      </trkpt>
      <trkpt lat="47.12757" lon="-1.61175">
        <ele>13.1151123</ele>
        <time>2010-10-09T19:06:57Z</time>
      </trkpt>
      <trkpt lat="47.12798" lon="-1.61133">
        <ele>13.1151123</ele>
        <time>2010-10-09T19:07:08Z</time>
      </trkpt>
      <trkpt lat="47.12837" lon="-1.61092">
        <ele>14.5570068</ele>
        <time>2010-10-09T19:07:18Z</time>
      </trkpt>
      <trkpt lat="47.12882" lon="-1.61056">
        <ele>17.4411621</ele>
        <time>2010-10-09T19:07:29Z</time>
      </trkpt>
      <trkpt lat="47.12919" lon="-1.61007">
        <ele>18.8830566</ele>
        <time>2010-10-09T19:07:38Z</time>
      </trkpt>
      <trkpt lat="47.12945" lon="-1.60941">
        <ele>18.4023438</ele>
        <time>2010-10-09T19:07:47Z</time>
      </trkpt>
      <trkpt lat="47.12958" lon="-1.60875">
        <ele>17.9217529</ele>
        <time>2010-10-09T19:07:55Z</time>
      </trkpt>
      <trkpt lat="47.12965" lon="-1.60802">
        <ele>17.4411621</ele>
        <time>2010-10-09T19:08:04Z</time>
      </trkpt>
      <trkpt lat="47.12969" lon="-1.60729">
        <ele>17.4411621</ele>
        <time>2010-10-09T19:08:13Z</time>
      </trkpt>
      <trkpt lat="47.12941" lon="-1.60688">
        <ele>16.9604492</ele>
        <time>2010-10-09T19:08:23Z</time>
      </trkpt>
      <trkpt lat="47.12895" lon="-1.60669">
        <ele>15.0377197</ele>
        <time>2010-10-09T19:08:32Z</time>
      </trkpt>
      <trkpt lat="47.12848" lon="-1.60654">
        <ele>13.5958252</ele>
        <time>2010-10-09T19:08:41Z</time>
      </trkpt>
      <trkpt lat="47.1281" lon="-1.60639">
        <ele>11.1925049</ele>
        <time>2010-10-09T19:08:52Z</time>
      </trkpt>
      <trkpt lat="47.12838" lon="-1.60585">
        <ele>11.6732178</ele>
        <time>2010-10-09T19:09:01Z</time>
      </trkpt>
      <trkpt lat="47.12867" lon="-1.60529">
        <ele>13.1151123</ele>
        <time>2010-10-09T19:09:10Z</time>
      </trkpt>
      <trkpt lat="47.12895" lon="-1.60476">
        <ele>12.6343994</ele>
        <time>2010-10-09T19:09:19Z</time>
      </trkpt>
      <trkpt lat="47.12917" lon="-1.60417">
        <ele>12.1538086</ele>
        <time>2010-10-09T19:09:28Z</time>
      </trkpt>
      <trkpt lat="47.12929" lon="-1.60348">
        <ele>11.6732178</ele>
        <time>2010-10-09T19:09:36Z</time>
      </trkpt>
      <trkpt lat="47.12941" lon="-1.60285">
        <ele>10.711792</ele>
        <time>2010-10-09T19:09:44Z</time>
      </trkpt>
      <trkpt lat="47.12961" lon="-1.60222">
        <ele>10.2312012</ele>
        <time>2010-10-09T19:09:52Z</time>
      </trkpt>
      <trkpt lat="47.12987" lon="-1.60166">
        <ele>10.711792</ele>
        <time>2010-10-09T19:10:00Z</time>
      </trkpt>
      <trkpt lat="47.13" lon="-1.60094">
        <ele>11.1925049</ele>
        <time>2010-10-09T19:10:08Z</time>
      </trkpt>
      <trkpt lat="47.13018" lon="-1.60023">
        <ele>12.1538086</ele>
        <time>2010-10-09T19:10:16Z</time>
      </trkpt>
      <trkpt lat="47.13062" lon="-1.59992">
        <ele>13.1151123</ele>
        <time>2010-10-09T19:10:24Z</time>
      </trkpt>
      <trkpt lat="47.13109" lon="-1.5999">
        <ele>15.5184326</ele>
        <time>2010-10-09T19:10:32Z</time>
      </trkpt>
      <trkpt lat="47.13158" lon="-1.5999">
        <ele>16.4797363</ele>
        <time>2010-10-09T19:10:40Z</time>
      </trkpt>
      <trkpt lat="47.13205" lon="-1.59989">
        <ele>17.4411621</ele>
        <time>2010-10-09T19:10:48Z</time>
      </trkpt>
      <trkpt lat="47.1324" lon="-1.59941">
        <ele>17.9217529</ele>
        <time>2010-10-09T19:10:59Z</time>
      </trkpt>
      <trkpt lat="47.13277" lon="-1.59899">
        <ele>19.3637695</ele>
        <time>2010-10-09T19:11:10Z</time>
      </trkpt>
      <trkpt lat="47.13299" lon="-1.59855">
        <ele>19.3637695</ele>
        <time>2010-10-09T19:11:23Z</time>
      </trkpt>
      <trkpt lat="47.13292" lon="-1.59793">
        <ele>18.8830566</ele>
        <time>2010-10-09T19:11:33Z</time>
      </trkpt>
      <trkpt lat="47.13293" lon="-1.59723">
        <ele>17.9217529</ele>
        <time>2010-10-09T19:11:43Z</time>
      </trkpt>
      <trkpt lat="47.13298" lon="-1.59654">
        <ele>18.4023438</ele>
        <time>2010-10-09T19:11:53Z</time>
      </trkpt>
      <trkpt lat="47.1331" lon="-1.59582">
        <ele>18.8830566</ele>
        <time>2010-10-09T19:12:02Z</time>
      </trkpt>
      <trkpt lat="47.13323" lon="-1.59513">
        <ele>18.8830566</ele>
        <time>2010-10-09T19:12:11Z</time>
      </trkpt>
      <trkpt lat="47.13336" lon="-1.59443">
        <ele>18.4023438</ele>
        <time>2010-10-09T19:12:20Z</time>
      </trkpt>
      <trkpt lat="47.13352" lon="-1.59373">
        <ele>18.4023438</ele>
        <time>2010-10-09T19:12:32Z</time>
      </trkpt>
      <trkpt lat="47.13371" lon="-1.59305">
        <ele>16.9604492</ele>
        <time>2010-10-09T19:12:41Z</time>
      </trkpt>
      <trkpt lat="47.13397" lon="-1.5924">
        <ele>17.4411621</ele>
        <time>2010-10-09T19:12:49Z</time>
      </trkpt>
      <trkpt lat="47.13425" lon="-1.59177">
        <ele>17.9217529</ele>
        <time>2010-10-09T19:12:57Z</time>
      </trkpt>
      <trkpt lat="47.13444" lon="-1.59115">
        <ele>17.4411621</ele>
        <time>2010-10-09T19:13:04Z</time>
      </trkpt>
      <trkpt lat="47.13454" lon="-1.59045">
        <ele>16.9604492</ele>
        <time>2010-10-09T19:13:11Z</time>
      </trkpt>
      <trkpt lat="47.13466" lon="-1.58972">
        <ele>15.9990234</ele>
        <time>2010-10-09T19:13:18Z</time>
      </trkpt>
      <trkpt lat="47.13482" lon="-1.58907">
        <ele>15.9990234</ele>
        <time>2010-10-09T19:13:24Z</time>
      </trkpt>
      <trkpt lat="47.13498" lon="-1.58839">
        <ele>15.0377197</ele>
        <time>2010-10-09T19:13:32Z</time>
      </trkpt>
      <trkpt lat="47.13515" lon="-1.58827">
        <ele>15.0377197</ele>
        <time>2010-10-09T19:13:47Z</time>
      </trkpt>
      <trkpt lat="47.1356" lon="-1.5885">
        <ele>13.1151123</ele>
        <time>2010-10-09T19:13:56Z</time>
      </trkpt>
      <trkpt lat="47.13592" lon="-1.58855">
        <ele>14.5570068</ele>
        <time>2010-10-09T19:14:35Z</time>
      </trkpt>
      <trkpt lat="47.13561" lon="-1.58849">
        <ele>15.5184326</ele>
        <time>2010-10-09T19:21:58Z</time>
      </trkpt>
      <trkpt lat="47.13608" lon="-1.58859">
        <ele>16.9604492</ele>
        <time>2010-10-09T19:22:13Z</time>
      </trkpt>
      <trkpt lat="47.13654" lon="-1.58887">
        <ele>16.4797363</ele>
        <time>2010-10-09T19:22:25Z</time>
      </trkpt>
      <trkpt lat="47.137" lon="-1.58918">
        <ele>14.076416</ele>
        <time>2010-10-09T19:23:08Z</time>
      </trkpt>
      <trkpt lat="47.13748" lon="-1.58954">
        <ele>14.5570068</ele>
        <time>2010-10-09T19:26:18Z</time>
      </trkpt>
      <trkpt lat="47.13786" lon="-1.59012">
        <ele>14.076416</ele>
        <time>2010-10-09T19:26:27Z</time>
      </trkpt>
      <trkpt lat="47.13815" lon="-1.59066">
        <ele>14.076416</ele>
        <time>2010-10-09T19:26:35Z</time>
      </trkpt>
      <trkpt lat="47.13846" lon="-1.59123">
        <ele>14.076416</ele>
        <time>2010-10-09T19:26:44Z</time>
      </trkpt>
      <trkpt lat="47.13864" lon="-1.59173">
        <ele>12.1538086</ele>
        <time>2010-10-09T19:26:55Z</time>
      </trkpt>
      <trkpt lat="47.13826" lon="-1.59212">
        <ele>14.5570068</ele>
        <time>2010-10-09T19:27:06Z</time>
      </trkpt>
      <trkpt lat="47.13789" lon="-1.59266">
        <ele>19.3637695</ele>
        <time>2010-10-09T19:27:16Z</time>
      </trkpt>
      <trkpt lat="47.13754" lon="-1.59323">
        <ele>21.7669678</ele>
        <time>2010-10-09T19:27:26Z</time>
      </trkpt>
      <trkpt lat="47.13716" lon="-1.59375">
        <ele>25.6123047</ele>
        <time>2010-10-09T19:27:38Z</time>
      </trkpt>
      <trkpt lat="47.13674" lon="-1.59429">
        <ele>25.1317139</ele>
        <time>2010-10-09T19:27:48Z</time>
      </trkpt>
      <trkpt lat="47.13639" lon="-1.59484">
        <ele>28.9769287</ele>
        <time>2010-10-09T19:28:00Z</time>
      </trkpt>
      <trkpt lat="47.13607" lon="-1.59541">
        <ele>31.380127</ele>
        <time>2010-10-09T19:28:11Z</time>
      </trkpt>
      <trkpt lat="47.13601" lon="-1.59601">
        <ele>29.4575195</ele>
        <time>2010-10-09T19:28:24Z</time>
      </trkpt>
      <trkpt lat="47.1364" lon="-1.59645">
        <ele>27.5349121</ele>
        <time>2010-10-09T19:28:34Z</time>
      </trkpt>
      <trkpt lat="47.13679" lon="-1.59681">
        <ele>24.1702881</ele>
        <time>2010-10-09T19:28:43Z</time>
      </trkpt>
      <trkpt lat="47.13719" lon="-1.59713">
        <ele>22.2475586</ele>
        <time>2010-10-09T19:28:52Z</time>
      </trkpt>
      <trkpt lat="47.1376" lon="-1.59757">
        <ele>22.2475586</ele>
        <time>2010-10-09T19:29:01Z</time>
      </trkpt>
      <trkpt lat="47.13799" lon="-1.59801">
        <ele>21.286377</ele>
        <time>2010-10-09T19:29:09Z</time>
      </trkpt>
      <trkpt lat="47.13838" lon="-1.59848">
        <ele>20.3249512</ele>
        <time>2010-10-09T19:29:18Z</time>
      </trkpt>
      <trkpt lat="47.13878" lon="-1.59901">
        <ele>18.8830566</ele>
        <time>2010-10-09T19:29:27Z</time>
      </trkpt>
      <trkpt lat="47.13917" lon="-1.59953">
        <ele>19.8443604</ele>
        <time>2010-10-09T19:29:36Z</time>
      </trkpt>
      <trkpt lat="47.13955" lon="-1.60003">
        <ele>19.3637695</ele>
        <time>2010-10-09T19:29:45Z</time>
      </trkpt>
      <trkpt lat="47.13996" lon="-1.60033">
        <ele>19.3637695</ele>
        <time>2010-10-09T19:29:53Z</time>
      </trkpt>
      <trkpt lat="47.14041" lon="-1.60057">
        <ele>19.8443604</ele>
        <time>2010-10-09T19:30:01Z</time>
      </trkpt>
      <trkpt lat="47.14089" lon="-1.60086">
        <ele>20.3249512</ele>
        <time>2010-10-09T19:30:09Z</time>
      </trkpt>
      <trkpt lat="47.1413" lon="-1.60123">
        <ele>21.286377</ele>
        <time>2010-10-09T19:30:17Z</time>
      </trkpt>
      <trkpt lat="47.1416" lon="-1.60175">
        <ele>21.286377</ele>
        <time>2010-10-09T19:30:26Z</time>
      </trkpt>
      <trkpt lat="47.14193" lon="-1.60209">
        <ele>20.8056641</ele>
        <time>2010-10-09T19:30:41Z</time>
      </trkpt>
      <trkpt lat="47.14231" lon="-1.60169">
        <ele>20.8056641</ele>
        <time>2010-10-09T19:30:52Z</time>
      </trkpt>
      <trkpt lat="47.14272" lon="-1.60127">
        <ele>20.8056641</ele>
        <time>2010-10-09T19:31:02Z</time>
      </trkpt>
      <trkpt lat="47.14309" lon="-1.60087">
        <ele>19.8443604</ele>
        <time>2010-10-09T19:31:11Z</time>
      </trkpt>
      <trkpt lat="47.1435" lon="-1.60043">
        <ele>17.9217529</ele>
        <time>2010-10-09T19:31:20Z</time>
      </trkpt>
      <trkpt lat="47.14388" lon="-1.60002">
        <ele>17.9217529</ele>
        <time>2010-10-09T19:31:30Z</time>
      </trkpt>
      <trkpt lat="47.14425" lon="-1.59958">
        <ele>19.3637695</ele>
        <time>2010-10-09T19:32:57Z</time>
      </trkpt>
      <trkpt lat="47.14464" lon="-1.59913">
        <ele>19.8443604</ele>
        <time>2010-10-09T19:33:08Z</time>
      </trkpt>
      <trkpt lat="47.145" lon="-1.59872">
        <ele>21.7669678</ele>
        <time>2010-10-09T19:33:19Z</time>
      </trkpt>
      <trkpt lat="47.14544" lon="-1.59898">
        <ele>21.286377</ele>
        <time>2010-10-09T19:33:29Z</time>
      </trkpt>
      <trkpt lat="47.14587" lon="-1.59932">
        <ele>20.8056641</ele>
        <time>2010-10-09T19:33:39Z</time>
      </trkpt>
      <trkpt lat="47.14628" lon="-1.59966">
        <ele>19.8443604</ele>
        <time>2010-10-09T19:33:51Z</time>
      </trkpt>
      <trkpt lat="47.14669" lon="-1.60003">
        <ele>19.3637695</ele>
        <time>2010-10-09T19:34:06Z</time>
      </trkpt>
      <trkpt lat="47.14713" lon="-1.6004">
        <ele>18.8830566</ele>
        <time>2010-10-09T19:34:19Z</time>
      </trkpt>
      <trkpt lat="47.14758" lon="-1.60077">
        <ele>21.286377</ele>
        <time>2010-10-09T19:34:30Z</time>
      </trkpt>
      <trkpt lat="47.14806" lon="-1.60116">
        <ele>23.6895752</ele>
        <time>2010-10-09T19:34:42Z</time>
      </trkpt>
      <trkpt lat="47.1486" lon="-1.60137">
        <ele>24.1702881</ele>
        <time>2010-10-09T19:34:53Z</time>
      </trkpt>
      <trkpt lat="47.14919" lon="-1.6016">
        <ele>24.651001</ele>
        <time>2010-10-09T19:35:09Z</time>
      </trkpt>
      <trkpt lat="47.14939" lon="-1.60222">
        <ele>25.1317139</ele>
        <time>2010-10-09T19:35:27Z</time>
      </trkpt>
      <trkpt lat="47.14956" lon="-1.60289">
        <ele>25.6123047</ele>
        <time>2010-10-09T19:35:41Z</time>
      </trkpt>
      <trkpt lat="47.14973" lon="-1.60353">
        <ele>26.0928955</ele>
        <time>2010-10-09T19:35:53Z</time>
      </trkpt>
      <trkpt lat="47.1499" lon="-1.60418">
        <ele>27.0543213</ele>
        <time>2010-10-09T19:36:09Z</time>
      </trkpt>
      <trkpt lat="47.15012" lon="-1.60474">
        <ele>26.5736084</ele>
        <time>2010-10-09T19:36:28Z</time>
      </trkpt>
      <trkpt lat="47.14985" lon="-1.60532">
        <ele>26.0928955</ele>
        <time>2010-10-09T19:36:45Z</time>
      </trkpt>
      <trkpt lat="47.14959" lon="-1.60586">
        <ele>26.0928955</ele>
        <time>2010-10-09T19:36:58Z</time>
      </trkpt>
      <trkpt lat="47.14933" lon="-1.60645">
        <ele>26.5736084</ele>
        <time>2010-10-09T19:37:10Z</time>
      </trkpt>
      <trkpt lat="47.14909" lon="-1.60706">
        <ele>26.5736084</ele>
        <time>2010-10-09T19:37:21Z</time>
      </trkpt>
      <trkpt lat="47.14888" lon="-1.60772">
        <ele>27.0543213</ele>
        <time>2010-10-09T19:37:32Z</time>
      </trkpt>
      <trkpt lat="47.14869" lon="-1.60835">
        <ele>25.6123047</ele>
        <time>2010-10-09T19:37:42Z</time>
      </trkpt>
      <trkpt lat="47.14853" lon="-1.60899">
        <ele>25.6123047</ele>
        <time>2010-10-09T19:37:51Z</time>
      </trkpt>
      <trkpt lat="47.14838" lon="-1.60966">
        <ele>25.1317139</ele>
        <time>2010-10-09T19:38:00Z</time>
      </trkpt>
      <trkpt lat="47.14817" lon="-1.61025">
        <ele>24.651001</ele>
        <time>2010-10-09T19:38:10Z</time>
      </trkpt>
      <trkpt lat="47.14778" lon="-1.61064">
        <ele>24.651001</ele>
        <time>2010-10-09T19:38:19Z</time>
      </trkpt>
      <trkpt lat="47.14738" lon="-1.61106">
        <ele>24.651001</ele>
        <time>2010-10-09T19:38:28Z</time>
      </trkpt>
      <trkpt lat="47.14706" lon="-1.61163">
        <ele>25.1317139</ele>
        <time>2010-10-09T19:38:37Z</time>
      </trkpt>
      <trkpt lat="47.14675" lon="-1.61221">
        <ele>25.1317139</ele>
        <time>2010-10-09T19:38:46Z</time>
      </trkpt>
      <trkpt lat="47.14633" lon="-1.61254">
        <ele>23.2089844</ele>
        <time>2010-10-09T19:38:54Z</time>
      </trkpt>
      <trkpt lat="47.14591" lon="-1.61287">
        <ele>21.286377</ele>
        <time>2010-10-09T19:39:01Z</time>
      </trkpt>
      <trkpt lat="47.14546" lon="-1.61314">
        <ele>18.8830566</ele>
        <time>2010-10-09T19:39:08Z</time>
      </trkpt>
      <trkpt lat="47.14501" lon="-1.61299">
        <ele>19.8443604</ele>
        <time>2010-10-09T19:39:15Z</time>
      </trkpt>
      <trkpt lat="47.14452" lon="-1.6128">
        <ele>20.3249512</ele>
        <time>2010-10-09T19:39:22Z</time>
      </trkpt>
      <trkpt lat="47.14408" lon="-1.61263">
        <ele>19.8443604</ele>
        <time>2010-10-09T19:39:28Z</time>
      </trkpt>
      <trkpt lat="47.14361" lon="-1.61252">
        <ele>19.8443604</ele>
        <time>2010-10-09T19:39:34Z</time>
      </trkpt>
      <trkpt lat="47.14308" lon="-1.61252">
        <ele>19.3637695</ele>
        <time>2010-10-09T19:39:41Z</time>
      </trkpt>
      <trkpt lat="47.1426" lon="-1.61254">
        <ele>18.8830566</ele>
        <time>2010-10-09T19:39:47Z</time>
      </trkpt>
      <trkpt lat="47.14211" lon="-1.61259">
        <ele>17.4411621</ele>
        <time>2010-10-09T19:39:53Z</time>
      </trkpt>
      <trkpt lat="47.14177" lon="-1.61214">
        <ele>16.9604492</ele>
        <time>2010-10-09T19:39:59Z</time>
      </trkpt>
      <trkpt lat="47.14153" lon="-1.61155">
        <ele>15.9990234</ele>
        <time>2010-10-09T19:40:05Z</time>
      </trkpt>
      <trkpt lat="47.14124" lon="-1.611">
        <ele>15.9990234</ele>
        <time>2010-10-09T19:40:16Z</time>
      </trkpt>
      <trkpt lat="47.14094" lon="-1.61141">
        <ele>15.5184326</ele>
        <time>2010-10-09T19:40:31Z</time>
      </trkpt>
      <trkpt lat="47.14065" lon="-1.61192">
        <ele>15.5184326</ele>
        <time>2010-10-09T19:40:45Z</time>
      </trkpt>
      <trkpt lat="47.14043" lon="-1.61254">
        <ele>16.4797363</ele>
        <time>2010-10-09T19:40:58Z</time>
      </trkpt>
      <trkpt lat="47.14032" lon="-1.61318">
        <ele>15.9990234</ele>
        <time>2010-10-09T19:41:14Z</time>
      </trkpt>
      <trkpt lat="47.14013" lon="-1.61379">
        <ele>16.9604492</ele>
        <time>2010-10-09T19:41:26Z</time>
      </trkpt>
      <trkpt lat="47.13971" lon="-1.61419">
        <ele>16.9604492</ele>
        <time>2010-10-09T19:41:38Z</time>
      </trkpt>
      <trkpt lat="47.13934" lon="-1.61462">
        <ele>16.9604492</ele>
        <time>2010-10-09T19:41:48Z</time>
      </trkpt>
      <trkpt lat="47.139" lon="-1.6151">
        <ele>17.4411621</ele>
        <time>2010-10-09T19:41:58Z</time>
      </trkpt>
      <trkpt lat="47.13866" lon="-1.61558">
        <ele>16.9604492</ele>
        <time>2010-10-09T19:42:08Z</time>
      </trkpt>
      <trkpt lat="47.13833" lon="-1.61605">
        <ele>17.9217529</ele>
        <time>2010-10-09T19:42:18Z</time>
      </trkpt>
      <trkpt lat="47.13799" lon="-1.61652">
        <ele>19.3637695</ele>
        <time>2010-10-09T19:42:28Z</time>
      </trkpt>
      <trkpt lat="47.13763" lon="-1.61696">
        <ele>19.3637695</ele>
        <time>2010-10-09T19:42:37Z</time>
      </trkpt>
      <trkpt lat="47.13741" lon="-1.61759">
        <ele>17.9217529</ele>
        <time>2010-10-09T19:42:46Z</time>
      </trkpt>
      <trkpt lat="47.13728" lon="-1.61831">
        <ele>16.9604492</ele>
        <time>2010-10-09T19:42:55Z</time>
      </trkpt>
      <trkpt lat="47.13723" lon="-1.61897">
        <ele>16.4797363</ele>
        <time>2010-10-09T19:43:03Z</time>
      </trkpt>
      <trkpt lat="47.13726" lon="-1.61967">
        <ele>15.9990234</ele>
        <time>2010-10-09T19:43:11Z</time>
      </trkpt>
      <trkpt lat="47.13734" lon="-1.62036">
        <ele>16.9604492</ele>
        <time>2010-10-09T19:43:19Z</time>
      </trkpt>
      <trkpt lat="47.13742" lon="-1.62105">
        <ele>17.9217529</ele>
        <time>2010-10-09T19:43:27Z</time>
      </trkpt>
      <trkpt lat="47.13751" lon="-1.62176">
        <ele>17.4411621</ele>
        <time>2010-10-09T19:43:35Z</time>
      </trkpt>
      <trkpt lat="47.13759" lon="-1.62246">
        <ele>17.4411621</ele>
        <time>2010-10-09T19:43:43Z</time>
      </trkpt>
      <trkpt lat="47.13764" lon="-1.62318">
        <ele>16.4797363</ele>
        <time>2010-10-09T19:43:51Z</time>
      </trkpt>
      <trkpt lat="47.13759" lon="-1.6239">
        <ele>15.0377197</ele>
        <time>2010-10-09T19:43:58Z</time>
      </trkpt>
      <trkpt lat="47.13762" lon="-1.62461">
        <ele>12.6343994</ele>
        <time>2010-10-09T19:44:04Z</time>
      </trkpt>
      <trkpt lat="47.13769" lon="-1.62527">
        <ele>11.1925049</ele>
        <time>2010-10-09T19:44:10Z</time>
      </trkpt>
      <trkpt lat="47.13776" lon="-1.62598">
        <ele>10.711792</ele>
        <time>2010-10-09T19:44:17Z</time>
      </trkpt>
      <trkpt lat="47.13781" lon="-1.62667">
        <ele>10.2312012</ele>
        <time>2010-10-09T19:44:23Z</time>
      </trkpt>
      <trkpt lat="47.13781" lon="-1.62742">
        <ele>11.6732178</ele>
        <time>2010-10-09T19:44:29Z</time>
      </trkpt>
      <trkpt lat="47.13797" lon="-1.62811">
        <ele>13.5958252</ele>
        <time>2010-10-09T19:44:35Z</time>
      </trkpt>
      <trkpt lat="47.13822" lon="-1.62878">
        <ele>14.5570068</ele>
        <time>2010-10-09T19:44:42Z</time>
      </trkpt>
      <trkpt lat="47.13861" lon="-1.6286">
        <ele>14.5570068</ele>
        <time>2010-10-09T19:44:51Z</time>
      </trkpt>
      <trkpt lat="47.13897" lon="-1.62819">
        <ele>15.0377197</ele>
        <time>2010-10-09T19:45:01Z</time>
      </trkpt>
      <trkpt lat="47.13934" lon="-1.6278">
        <ele>15.9990234</ele>
        <time>2010-10-09T19:45:10Z</time>
      </trkpt>
      <trkpt lat="47.13952" lon="-1.62767">
        <ele>16.4797363</ele>
        <time>2010-10-09T19:45:41Z</time>
      </trkpt>
      <trkpt lat="47.13914" lon="-1.62802">
        <ele>15.5184326</ele>
        <time>2010-10-09T19:46:04Z</time>
      </trkpt>
      <trkpt lat="47.13941" lon="-1.62775">
        <ele>16.4797363</ele>
        <time>2010-10-09T19:48:15Z</time>
      </trkpt>
      <trkpt lat="47.13985" lon="-1.62742">
        <ele>17.4411621</ele>
        <time>2010-10-09T19:48:26Z</time>
      </trkpt>
      <trkpt lat="47.14029" lon="-1.6273">
        <ele>17.4411621</ele>
        <time>2010-10-09T19:48:35Z</time>
      </trkpt>
      <trkpt lat="47.14069" lon="-1.6277">
        <ele>17.9217529</ele>
        <time>2010-10-09T19:48:45Z</time>
      </trkpt>
      <trkpt lat="47.14103" lon="-1.6282">
        <ele>17.9217529</ele>
        <time>2010-10-09T19:48:55Z</time>
      </trkpt>
      <trkpt lat="47.14138" lon="-1.6287">
        <ele>17.4411621</ele>
        <time>2010-10-09T19:49:05Z</time>
      </trkpt>
      <trkpt lat="47.14176" lon="-1.62912">
        <ele>17.4411621</ele>
        <time>2010-10-09T19:49:16Z</time>
      </trkpt>
      <trkpt lat="47.14213" lon="-1.62951">
        <ele>17.4411621</ele>
        <time>2010-10-09T19:49:26Z</time>
      </trkpt>
      <trkpt lat="47.14245" lon="-1.63001">
        <ele>17.4411621</ele>
        <time>2010-10-09T19:49:38Z</time>
      </trkpt>
      <trkpt lat="47.14278" lon="-1.63055">
        <ele>18.4023438</ele>
        <time>2010-10-09T19:49:51Z</time>
      </trkpt>
      <trkpt lat="47.14323" lon="-1.63079">
        <ele>17.4411621</ele>
        <time>2010-10-09T19:50:03Z</time>
      </trkpt>
      <trkpt lat="47.14373" lon="-1.63109">
        <ele>15.5184326</ele>
        <time>2010-10-09T19:50:15Z</time>
      </trkpt>
      <trkpt lat="47.14419" lon="-1.63134">
        <ele>16.9604492</ele>
        <time>2010-10-09T19:50:25Z</time>
      </trkpt>
      <trkpt lat="47.14466" lon="-1.63148">
        <ele>18.8830566</ele>
        <time>2010-10-09T19:50:35Z</time>
      </trkpt>
      <trkpt lat="47.14514" lon="-1.6315">
        <ele>19.8443604</ele>
        <time>2010-10-09T19:50:45Z</time>
      </trkpt>
      <trkpt lat="47.14564" lon="-1.63144">
        <ele>20.8056641</ele>
        <time>2010-10-09T19:50:55Z</time>
      </trkpt>
      <trkpt lat="47.14611" lon="-1.63117">
        <ele>20.8056641</ele>
        <time>2010-10-09T19:51:05Z</time>
      </trkpt>
      <trkpt lat="47.14657" lon="-1.63088">
        <ele>21.7669678</ele>
        <time>2010-10-09T19:51:14Z</time>
      </trkpt>
      <trkpt lat="47.14706" lon="-1.63076">
        <ele>22.7282715</ele>
        <time>2010-10-09T19:51:23Z</time>
      </trkpt>
      <trkpt lat="47.14754" lon="-1.6307">
        <ele>23.6895752</ele>
        <time>2010-10-09T19:51:31Z</time>
      </trkpt>
      <trkpt lat="47.14804" lon="-1.63067">
        <ele>24.651001</ele>
        <time>2010-10-09T19:51:39Z</time>
      </trkpt>
      <trkpt lat="47.14855" lon="-1.63064">
        <ele>24.1702881</ele>
        <time>2010-10-09T19:51:47Z</time>
      </trkpt>
      <trkpt lat="47.14883" lon="-1.63092">
        <ele>24.651001</ele>
        <time>2010-10-09T19:51:58Z</time>
      </trkpt>
      <trkpt lat="47.14875" lon="-1.63162">
        <ele>23.2089844</ele>
        <time>2010-10-09T19:52:07Z</time>
      </trkpt>
      <trkpt lat="47.14902" lon="-1.63207">
        <ele>22.2475586</ele>
        <time>2010-10-09T19:52:19Z</time>
      </trkpt>
      <trkpt lat="47.14935" lon="-1.63252">
        <ele>21.286377</ele>
        <time>2010-10-09T19:52:28Z</time>
      </trkpt>
      <trkpt lat="47.14971" lon="-1.633">
        <ele>21.286377</ele>
        <time>2010-10-09T19:52:37Z</time>
      </trkpt>
      <trkpt lat="47.15005" lon="-1.63347">
        <ele>21.286377</ele>
        <time>2010-10-09T19:52:45Z</time>
      </trkpt>
      <trkpt lat="47.15039" lon="-1.63397">
        <ele>20.8056641</ele>
        <time>2010-10-09T19:52:52Z</time>
      </trkpt>
      <trkpt lat="47.15072" lon="-1.6345">
        <ele>20.3249512</ele>
        <time>2010-10-09T19:52:59Z</time>
      </trkpt>
      <trkpt lat="47.15103" lon="-1.63511">
        <ele>19.3637695</ele>
        <time>2010-10-09T19:53:07Z</time>
      </trkpt>
      <trkpt lat="47.15133" lon="-1.63564">
        <ele>18.8830566</ele>
        <time>2010-10-09T19:53:17Z</time>
      </trkpt>
      <trkpt lat="47.1517" lon="-1.63525">
        <ele>18.4023438</ele>
        <time>2010-10-09T19:53:27Z</time>
      </trkpt>
      <trkpt lat="47.15206" lon="-1.63483">
        <ele>17.9217529</ele>
        <time>2010-10-09T19:53:35Z</time>
      </trkpt>
      <trkpt lat="47.15245" lon="-1.63436">
        <ele>17.9217529</ele>
        <time>2010-10-09T19:53:43Z</time>
      </trkpt>
      <trkpt lat="47.15282" lon="-1.63392">
        <ele>17.9217529</ele>
        <time>2010-10-09T19:53:50Z</time>
      </trkpt>
      <trkpt lat="47.15324" lon="-1.63342">
        <ele>16.9604492</ele>
        <time>2010-10-09T19:53:57Z</time>
      </trkpt>
      <trkpt lat="47.15364" lon="-1.63294">
        <ele>15.5184326</ele>
        <time>2010-10-09T19:54:03Z</time>
      </trkpt>
      <trkpt lat="47.15401" lon="-1.63247">
        <ele>15.0377197</ele>
        <time>2010-10-09T19:54:09Z</time>
      </trkpt>
      <trkpt lat="47.15434" lon="-1.63187">
        <ele>13.5958252</ele>
        <time>2010-10-09T19:54:15Z</time>
      </trkpt>
      <trkpt lat="47.15467" lon="-1.63135">
        <ele>12.6343994</ele>
        <time>2010-10-09T19:54:20Z</time>
      </trkpt>
      <trkpt lat="47.15503" lon="-1.63084">
        <ele>11.6732178</ele>
        <time>2010-10-09T19:54:25Z</time>
      </trkpt>
      <trkpt lat="47.15539" lon="-1.63036">
        <ele>11.1925049</ele>
        <time>2010-10-09T19:54:30Z</time>
      </trkpt>
      <trkpt lat="47.15574" lon="-1.62987">
        <ele>10.2312012</ele>
        <time>2010-10-09T19:54:35Z</time>
      </trkpt>
      <trkpt lat="47.1561" lon="-1.62941">
        <ele>8.7891846</ele>
        <time>2010-10-09T19:54:40Z</time>
      </trkpt>
      <trkpt lat="47.15653" lon="-1.62902">
        <ele>8.7891846</ele>
        <time>2010-10-09T19:54:46Z</time>
      </trkpt>
      <trkpt lat="47.15695" lon="-1.62866">
        <ele>8.3085938</ele>
        <time>2010-10-09T19:54:53Z</time>
      </trkpt>
      <trkpt lat="47.15728" lon="-1.62819">
        <ele>10.2312012</ele>
        <time>2010-10-09T19:55:03Z</time>
      </trkpt>
      <trkpt lat="47.1573" lon="-1.62747">
        <ele>9.2698975</ele>
        <time>2010-10-09T19:55:11Z</time>
      </trkpt>
      <trkpt lat="47.15728" lon="-1.62679">
        <ele>8.7891846</ele>
        <time>2010-10-09T19:55:20Z</time>
      </trkpt>
      <trkpt lat="47.15727" lon="-1.6261">
        <ele>8.7891846</ele>
        <time>2010-10-09T19:55:30Z</time>
      </trkpt>
      <trkpt lat="47.15724" lon="-1.62543">
        <ele>8.7891846</ele>
        <time>2010-10-09T19:55:40Z</time>
      </trkpt>
      <trkpt lat="47.15733" lon="-1.62478">
        <ele>8.3085938</ele>
        <time>2010-10-09T19:55:55Z</time>
      </trkpt>
      <trkpt lat="47.1577" lon="-1.62473">
        <ele>7.8278809</ele>
        <time>2010-10-09T19:56:06Z</time>
      </trkpt>
      <trkpt lat="47.15809" lon="-1.62518">
        <ele>9.2698975</ele>
        <time>2010-10-09T19:56:18Z</time>
      </trkpt>
      <trkpt lat="47.15858" lon="-1.62522">
        <ele>8.7891846</ele>
        <time>2010-10-09T19:56:30Z</time>
      </trkpt>
      <trkpt lat="47.15911" lon="-1.62528">
        <ele>9.2698975</ele>
        <time>2010-10-09T19:56:41Z</time>
      </trkpt>
      <trkpt lat="47.1596" lon="-1.62526">
        <ele>12.1538086</ele>
        <time>2010-10-09T19:56:53Z</time>
      </trkpt>
      <trkpt lat="47.16008" lon="-1.6253">
        <ele>15.9990234</ele>
        <time>2010-10-09T19:57:05Z</time>
      </trkpt>
      <trkpt lat="47.16056" lon="-1.62532">
        <ele>17.9217529</ele>
        <time>2010-10-09T19:57:18Z</time>
      </trkpt>
      <trkpt lat="47.16102" lon="-1.62533">
        <ele>19.3637695</ele>
        <time>2010-10-09T19:57:30Z</time>
      </trkpt>
      <trkpt lat="47.16149" lon="-1.62534">
        <ele>20.3249512</ele>
        <time>2010-10-09T19:57:42Z</time>
      </trkpt>
      <trkpt lat="47.16197" lon="-1.62534">
        <ele>22.2475586</ele>
        <time>2010-10-09T19:57:50Z</time>
      </trkpt>
      <trkpt lat="47.16248" lon="-1.6254">
        <ele>25.1317139</ele>
        <time>2010-10-09T19:57:59Z</time>
      </trkpt>
      <trkpt lat="47.16297" lon="-1.62553">
        <ele>27.0543213</ele>
        <time>2010-10-09T19:58:08Z</time>
      </trkpt>
      <trkpt lat="47.16343" lon="-1.62578">
        <ele>27.5349121</ele>
        <time>2010-10-09T19:58:21Z</time>
      </trkpt>
      <trkpt lat="47.16389" lon="-1.62578">
        <ele>28.0155029</ele>
        <time>2010-10-09T19:58:43Z</time>
      </trkpt>
      <trkpt lat="47.1643" lon="-1.62542">
        <ele>28.0155029</ele>
        <time>2010-10-09T19:59:01Z</time>
      </trkpt>
      <trkpt lat="47.16478" lon="-1.62551">
        <ele>28.4962158</ele>
        <time>2010-10-09T19:59:14Z</time>
      </trkpt>
      <trkpt lat="47.16524" lon="-1.62565">
        <ele>28.0155029</ele>
        <time>2010-10-09T19:59:25Z</time>
      </trkpt>
      <trkpt lat="47.16563" lon="-1.62528">
        <ele>25.6123047</ele>
        <time>2010-10-09T19:59:36Z</time>
      </trkpt>
      <trkpt lat="47.16587" lon="-1.62469">
        <ele>24.1702881</ele>
        <time>2010-10-09T19:59:45Z</time>
      </trkpt>
      <trkpt lat="47.16614" lon="-1.62412">
        <ele>23.2089844</ele>
        <time>2010-10-09T19:59:53Z</time>
      </trkpt>
      <trkpt lat="47.16653" lon="-1.62366">
        <ele>21.7669678</ele>
        <time>2010-10-09T20:00:01Z</time>
      </trkpt>
      <trkpt lat="47.167" lon="-1.62376">
        <ele>20.3249512</ele>
        <time>2010-10-09T20:00:09Z</time>
      </trkpt>
      <trkpt lat="47.16737" lon="-1.62422">
        <ele>19.3637695</ele>
        <time>2010-10-09T20:00:20Z</time>
      </trkpt>
      <trkpt lat="47.16778" lon="-1.62449">
        <ele>19.3637695</ele>
        <time>2010-10-09T20:00:29Z</time>
      </trkpt>
      <trkpt lat="47.16819" lon="-1.62429">
        <ele>20.3249512</ele>
        <time>2010-10-09T20:00:45Z</time>
      </trkpt>
      <trkpt lat="47.16855" lon="-1.62388">
        <ele>19.8443604</ele>
        <time>2010-10-09T20:00:57Z</time>
      </trkpt>
      <trkpt lat="47.169" lon="-1.62366">
        <ele>18.8830566</ele>
        <time>2010-10-09T20:01:15Z</time>
      </trkpt>
      <trkpt lat="47.16941" lon="-1.62331">
        <ele>17.4411621</ele>
        <time>2010-10-09T20:01:25Z</time>
      </trkpt>
      <trkpt lat="47.16981" lon="-1.62296">
        <ele>16.4797363</ele>
        <time>2010-10-09T20:01:41Z</time>
      </trkpt>
      <trkpt lat="47.17024" lon="-1.62272">
        <ele>15.0377197</ele>
        <time>2010-10-09T20:01:51Z</time>
      </trkpt>
      <trkpt lat="47.17071" lon="-1.62244">
        <ele>14.076416</ele>
        <time>2010-10-09T20:02:01Z</time>
      </trkpt>
      <trkpt lat="47.17116" lon="-1.62221">
        <ele>13.5958252</ele>
        <time>2010-10-09T20:02:10Z</time>
      </trkpt>
      <trkpt lat="47.17161" lon="-1.622">
        <ele>12.1538086</ele>
        <time>2010-10-09T20:02:19Z</time>
      </trkpt>
      <trkpt lat="47.17208" lon="-1.6218">
        <ele>12.1538086</ele>
        <time>2010-10-09T20:02:29Z</time>
      </trkpt>
      <trkpt lat="47.17249" lon="-1.62155">
        <ele>12.6343994</ele>
        <time>2010-10-09T20:02:39Z</time>
      </trkpt>
      <trkpt lat="47.17288" lon="-1.62119">
        <ele>13.1151123</ele>
        <time>2010-10-09T20:02:52Z</time>
      </trkpt>
      <trkpt lat="47.17335" lon="-1.62108">
        <ele>12.1538086</ele>
        <time>2010-10-09T20:03:02Z</time>
      </trkpt>
      <trkpt lat="47.17388" lon="-1.62101">
        <ele>14.076416</ele>
        <time>2010-10-09T20:03:21Z</time>
      </trkpt>
      <trkpt lat="47.17438" lon="-1.62104">
        <ele>15.9990234</ele>
        <time>2010-10-09T20:03:32Z</time>
      </trkpt>
      <trkpt lat="47.17488" lon="-1.62119">
        <ele>18.4023438</ele>
        <time>2010-10-09T20:03:43Z</time>
      </trkpt>
      <trkpt lat="47.17537" lon="-1.62121">
        <ele>21.286377</ele>
        <time>2010-10-09T20:03:59Z</time>
      </trkpt>
      <trkpt lat="47.17582" lon="-1.62139">
        <ele>22.2475586</ele>
        <time>2010-10-09T20:04:09Z</time>
      </trkpt>
      <trkpt lat="47.17626" lon="-1.62164">
        <ele>21.7669678</ele>
        <time>2010-10-09T20:04:18Z</time>
      </trkpt>
      <trkpt lat="47.17675" lon="-1.62184">
        <ele>25.6123047</ele>
        <time>2010-10-09T20:04:28Z</time>
      </trkpt>
      <trkpt lat="47.17712" lon="-1.62215">
        <ele>26.5736084</ele>
        <time>2010-10-09T20:04:46Z</time>
      </trkpt>
      <trkpt lat="47.17727" lon="-1.62224">
        <ele>26.5736084</ele>
        <time>2010-10-09T20:05:24Z</time>
      </trkpt>
    </trkseg>
  </trk>
</gpx>